Portsmouth, Virginia - KPWR: 24-hour Summary Portsmouth Weather Records Service - Portsmouth, Virginia



LOCAL CLIMATOLOGICAL DATA: This Month's Data
[updated each morning between 7AM and 9AM]
Station: Portsmouth, Virginia - KPWR Latitude: 36° 48' 04" N Longitude: 76° 19' 37" W Elevation (ground): 13 ft. Time Zone: Eastern

BE SURE TO RELOAD/REFRESH THIS SCREEN FOR DAILY UPDATES BY RIGHT-CLICKING THE BACKGROUND The data in this frame and listed below are final adjusted site data for the time period.


-----------------------------------------------------------------------------------------------------------------------------------------------------------------------------------
FRIDAY			Temp	Hi	Low	Out	Dew	Wind	Wind	Wind	Hi	Hi	Wind	Heat	THW			Rain	Heat	Cool	In 	In	In 	In 	Wind	Wind	ISS 	Arc.
Date		Time	Out	Temp	Temp	Hum	Pt.	Speed	Dir	Run	Speed	Dir	Chill	Index	Index	Bar  	Rain	Rate	D-D 	D-D 	Temp	Hum	Dew	Heat	Samp	Tx 	Recept	Int.
02/01/19	12:00 a	26.0	26.4	26.0	75	19.2	4.0	SSE	4.00	7.0	SSE	21.1	25.6	20.7	30.391	0.00	0.00	1.625	0.000	79.0	20	34.5	76.1	1405	1	100.0	60
02/01/19	1:00 a	26.6	26.6	26.0	75	19.7	0.0	SSE	0.00	5.0	SSE	26.6	26.2	26.2	30.391	0.00	0.00	1.600	0.000	78.8	20	34.3	76.1	1404	1	100.0	60
02/01/19	2:00 a	27.3	27.3	26.6	74	20.1	5.0	SSE	5.00	11.0	S	21.6	26.9	21.2	30.391	0.00	0.00	1.571	0.000	78.8	20	34.3	76.1	1405	1	100.0	60
02/01/19	3:00 a	27.9	27.9	27.3	75	21.0	4.0	S	4.00	10.0	S	23.3	27.5	22.9	30.388	0.00	0.00	1.546	0.000	78.4	20	34.0	76.0	1405	1	100.0	60
02/01/19	4:00 a	28.2	28.2	27.9	76	21.6	4.0	S	4.00	6.0	S	23.7	27.8	23.3	30.375	0.00	0.00	1.533	0.000	78.9	20	34.4	76.1	1404	1	100.0	60
02/01/19	5:00 a	28.0	28.2	28.0	77	21.7	4.0	S	4.00	0.0	S	23.5	27.6	23.1	30.382	0.00	0.00	1.542	0.000	78.5	20	34.1	76.0	1406	1	100.0	60
02/01/19	6:00 a	27.9	28.0	27.9	80	22.5	0.0	S	0.00	6.0	S	27.9	27.6	27.6	30.390	0.00	0.00	1.546	0.000	78.8	20	34.3	76.1	1404	1	100.0	60
02/01/19	7:00 a	27.8	27.9	27.8	82	23.0	0.0	S	0.00	5.0	S	27.8	27.5	27.5	30.393	0.00	0.00	1.550	0.000	78.7	20	34.2	76.0	1405	1	100.0	60
02/01/19	8:00 a	28.2	28.2	27.8	85	24.3	0.0	---	0.00	0.0	---	28.2	28.0	28.0	30.404	0.00	0.00	1.533	0.000	81.3	20	36.4	78.2	1405	1	100.0	60
02/01/19	9:00 a	31.2	31.2	28.2	87	27.8	4.0	S	4.00	11.0	S	27.2	31.0	27.0	30.408	0.00	0.00	1.408	0.000	82.7	20	37.5	79.7	1405	1	100.0	60
02/01/19	10:00 a	36.5	36.5	31.2	81	31.2	6.0	S	6.00	12.0	SSE	31.6	36.2	31.3	30.402	0.00	0.00	1.188	0.000	82.2	21	38.4	79.2	1405	1	100.0	60
02/01/19	11:00 a	41.6	41.6	36.5	70	32.5	7.0	S	7.00	16.0	SSE	37.0	41.0	36.4	30.382	0.00	0.00	0.975	0.000	81.9	21	38.1	78.9	1405	1	100.0	60
02/01/19	12:00 p	45.2	45.2	41.6	60	32.1	7.0	S	7.00	17.0	SSE	41.4	44.4	40.6	30.336	0.00	0.00	0.825	0.000	82.1	21	38.3	79.1	1405	1	100.0	60
02/01/19	1:00 p	48.7	48.7	45.2	52	31.8	10.0	SSW	10.00	18.0	WSW	43.8	47.6	42.7	30.284	0.00	0.00	0.679	0.000	82.2	21	38.4	79.2	1405	1	100.0	60
02/01/19	2:00 p	53.0	53.0	48.7	46	32.8	10.0	SSW	10.00	21.0	SW	48.8	51.2	47.0	30.252	0.00	0.00	0.500	0.000	82.6	21	38.7	79.7	1405	1	100.0	60
02/01/19	3:00 p	53.6	53.9	53.0	45	32.8	10.0	SW	10.00	21.0	WSW	49.5	51.7	47.6	30.242	0.00	0.00	0.475	0.000	82.1	22	39.5	79.2	1404	1	100.0	60
02/01/19	4:00 p	52.3	53.6	52.3	48	33.2	7.0	W	7.00	16.0	W	50.0	50.7	48.4	30.253	0.00	0.00	0.529	0.000	82.8	22	40.1	80.0	1405	1	100.0	60
02/01/19	5:00 p	46.8	52.3	46.8	65	35.6	7.0	NNW	7.00	16.0	NNW	43.4	46.1	42.7	30.277	0.00	0.00	0.758	0.000	82.4	22	39.7	79.5	1405	1	100.0	60
02/01/19	6:00 p	43.1	46.7	43.1	70	34.0	6.0	NE	6.00	14.0	ENE	39.4	42.5	38.8	30.288	0.00	0.00	0.913	0.000	81.8	22	39.2	78.9	1405	1	100.0	60
02/01/19	7:00 p	42.4	43.1	42.4	72	34.0	4.0	ENE	4.00	10.0	NE	40.1	41.9	39.6	30.305	0.00	0.00	0.942	0.000	82.9	22	40.1	80.1	1405	1	100.0	60
02/01/19	8:00 p	41.9	42.5	41.9	81	36.5	6.0	NE	6.00	16.0	NE	38.0	41.6	37.7	30.334	0.00	0.00	0.962	0.000	82.9	22	40.1	80.1	1405	1	100.0	60
02/01/19	9:00 p	38.2	41.8	38.1	87	34.7	7.0	NE	7.00	17.0	NE	33.0	38.0	32.8	30.340	0.00	0.00	1.117	0.000	82.7	22	40.0	79.9	1405	1	100.0	60
02/01/19	10:00 p	35.6	38.1	35.6	87	32.1	7.0	N	7.00	17.0	NE	29.8	35.4	29.6	30.361	0.00	0.00	1.225	0.000	83.1	22	40.3	80.3	1405	1	100.0	60
02/01/19	11:00 p	33.5	35.6	33.5	87	30.0	10.0	NE	10.00	21.0	N	25.6	33.3	25.4	30.378	0.00	0.00	1.313	0.000	82.6	22	39.9	79.8	1405	1	100.0	60
02/02/19	12:00 a	31.6	33.5	31.6	88	28.5	10.0	NNE	10.00	19.0	ENE	23.2	31.4	23.0	30.397	0.00	0.00	1.392	0.000	81.7	22	39.1	78.8	1405	1	100.0	60
SATURDAY		Temp	Hi	Low	Out	Dew	Wind	Wind	Wind	Hi	Hi	Wind	Heat	THW			Rain	Heat	Cool	In 	In	In 	In 	Wind	Wind	ISS 	Arc.
Date		Time	Out	Temp	Temp	Hum	Pt.	Speed	Dir	Run	Speed	Dir	Chill	Index	Index	Bar  	Rain	Rate	D-D 	D-D 	Temp	Hum	Dew	Heat	Samp	Tx 	Recept	Int.
02/02/19	1:00 a	31.0	31.6	31.0	87	27.6	7.0	NE	7.00	18.0	NE	24.3	30.8	24.1	30.396	0.00	0.00	1.417	0.000	79.3	22	37.1	76.6	1403	1	100.0	60
02/02/19	2:00 a	30.6	31.0	30.6	87	27.2	10.0	NE	10.00	19.0	NE	22.0	30.4	21.8	30.381	0.00	0.00	1.433	0.000	78.5	22	36.5	76.2	1405	1	100.0	60
02/02/19	3:00 a	30.2	30.6	30.1	87	26.8	6.0	NE	6.00	16.0	NE	24.1	30.0	23.9	30.381	0.00	0.00	1.450	0.000	77.8	22	35.9	75.9	1405	1	100.0	60
02/02/19	4:00 a	29.9	30.2	29.9	87	26.5	6.0	NE	6.00	14.0	NE	23.7	29.7	23.5	30.374	0.00	0.00	1.463	0.000	77.7	22	35.8	75.9	1405	1	100.0	60
02/02/19	5:00 a	29.6	29.9	29.6	84	25.4	5.0	NE	5.00	14.0	ENE	24.3	29.4	24.1	30.371	0.00	0.00	1.475	0.000	77.5	22	35.6	75.8	1405	1	100.0	60
02/02/19	6:00 a	29.1	29.7	29.1	83	24.6	4.0	NE	4.00	10.0	NE	24.7	28.9	24.5	30.370	0.00	0.00	1.496	0.000	77.0	22	35.2	75.6	1405	1	100.0	60
02/02/19	7:00 a	28.5	29.2	28.5	84	24.3	4.0	NNE	4.00	6.0	NNE	24.0	28.3	23.8	30.379	0.00	0.00	1.521	0.000	77.6	22	35.7	75.8	1405	1	100.0	60
02/02/19	8:00 a	29.8	29.8	28.0	88	26.7	4.0	NE	4.00	11.0	NE	25.5	29.6	25.3	30.384	0.00	0.00	1.467	0.000	79.2	21	35.9	76.4	1405	1	100.0	60
02/02/19	9:00 a	31.3	31.3	29.8	88	28.2	7.0	ENE	7.00	15.0	ENE	24.7	31.1	24.5	30.382	0.00	0.00	1.404	0.000	81.3	21	37.6	78.3	1405	1	100.0	60
02/02/19	10:00 a	33.8	33.8	31.3	87	30.3	5.0	ENE	5.00	12.0	ENE	29.2	33.6	29.0	30.372	0.00	0.00	1.300	0.000	82.0	21	38.2	79.0	1405	1	100.0	60
02/02/19	11:00 a	37.3	37.3	33.8	79	31.4	5.0	SSE	5.00	13.0	S	33.3	37.0	33.0	30.364	0.00	0.00	1.154	0.000	82.8	21	38.9	79.9	1404	1	100.0	60
02/02/19	12:00 p	40.5	40.5	37.3	75	33.2	5.0	S	5.00	12.0	S	37.1	40.0	36.6	30.332	0.00	0.00	1.021	0.000	83.1	21	39.1	80.2	1406	1	100.0	60
02/02/19	1:00 p	43.4	43.4	40.5	72	35.0	5.0	WSW	5.00	12.0	ESE	40.5	42.9	40.0	30.280	0.00	0.00	0.900	0.000	83.3	22	40.5	80.5	1404	1	100.0	60
02/02/19	2:00 p	47.0	47.0	43.4	67	36.6	6.0	S	6.00	14.0	SSE	44.1	46.4	43.5	30.258	0.00	0.00	0.750	0.000	82.9	23	41.3	80.1	1405	1	100.0	60
02/02/19	3:00 p	48.5	49.1	47.0	64	36.9	6.0	S	6.00	15.0	SSE	45.9	47.8	45.2	30.235	0.00	0.00	0.688	0.000	84.9	22	41.8	82.0	1405	1	100.0	60
02/02/19	4:00 p	47.1	48.4	47.0	67	36.7	6.0	NNW	6.00	14.0	NW	44.2	46.5	43.6	30.222	0.00	0.00	0.746	0.000	85.0	22	41.9	82.0	1405	1	100.0	60
02/02/19	5:00 p	45.7	47.2	45.7	70	36.5	6.0	ENE	6.00	13.0	ENE	42.5	45.2	42.0	30.219	0.00	0.00	0.804	0.000	84.3	23	42.5	81.6	1405	1	100.0	60
02/02/19	6:00 p	43.5	45.7	43.5	75	36.1	4.0	ENE	4.00	6.0	ENE	41.3	43.1	40.9	30.212	0.00	0.00	0.896	0.000	83.6	24	43.0	81.0	1405	1	100.0	60
02/02/19	7:00 p	41.2	43.5	41.2	78	34.9	0.0	ENE	0.00	5.0	ENE	41.2	40.9	40.9	30.209	0.00	0.00	0.992	0.000	82.4	24	42.0	79.8	1405	1	100.0	60
02/02/19	8:00 p	38.7	41.2	38.7	82	33.7	0.0	E	0.00	6.0	SE	38.7	38.4	38.4	30.206	0.00	0.00	1.096	0.000	81.4	24	41.1	78.7	1405	1	100.0	60
02/02/19	9:00 p	37.6	38.7	37.5	88	34.4	0.0	SE	0.00	6.0	SE	37.6	37.5	37.5	30.210	0.00	0.00	1.142	0.000	80.6	24	40.5	77.9	1405	1	100.0	60
02/02/19	10:00 p	36.8	37.6	36.8	89	33.9	0.0	SE	0.00	4.0	SE	36.8	36.7	36.7	30.209	0.00	0.00	1.175	0.000	80.1	23	38.9	77.4	1405	1	100.0	60
02/02/19	11:00 p	35.7	36.8	35.7	90	33.1	0.0	SE	0.00	4.0	SE	35.7	35.6	35.6	30.201	0.00	0.00	1.221	0.000	79.8	24	39.8	77.2	1404	1	100.0	60
02/03/19	12:00 a	34.6	35.7	34.6	91	32.2	0.0	SE	0.00	5.0	SE	34.6	34.5	34.5	30.193	0.00	0.00	1.267	0.000	81.3	23	39.9	78.5	1405	1	100.0	60
SUNDAY			Temp	Hi	Low	Out	Dew	Wind	Wind	Wind	Hi	Hi	Wind	Heat	THW			Rain	Heat	Cool	In 	In	In 	In 	Wind	Wind	ISS 	Arc.
Date		Time	Out	Temp	Temp	Hum	Pt.	Speed	Dir	Run	Speed	Dir	Chill	Index	Index	Bar  	Rain	Rate	D-D 	D-D 	Temp	Hum	Dew	Heat	Samp	Tx 	Recept	Int.
02/03/19	1:00 a	33.9	34.6	33.9	92	31.8	0.0	SE	0.00	5.0	SE	33.9	33.7	33.7	30.181	0.00	0.00	1.296	0.000	79.0	24	39.1	76.6	1404	1	100.0	60
02/03/19	2:00 a	33.8	33.9	33.8	93	32.0	0.0	SE	0.00	4.0	SE	33.8	33.7	33.7	30.174	0.00	0.00	1.300	0.000	79.3	24	39.4	76.8	1405	1	100.0	60
02/03/19	3:00 a	33.7	33.8	33.7	94	32.2	0.0	SE	0.00	5.0	SE	33.7	33.6	33.6	30.166	0.00	0.00	1.304	0.000	80.8	23	39.5	78.0	1405	1	100.0	60
02/03/19	4:00 a	33.5	33.8	33.5	94	32.0	0.0	SE	0.00	5.0	SE	33.5	33.4	33.4	30.154	0.00	0.00	1.313	0.000	80.5	23	39.3	77.8	1405	1	100.0	60
02/03/19	5:00 a	33.2	33.5	33.2	94	31.7	0.0	SE	0.00	4.0	SE	33.2	33.1	33.1	30.148	0.00	0.00	1.325	0.000	80.9	23	39.6	78.1	1405	1	100.0	60
02/03/19	6:00 a	32.8	33.3	32.8	94	31.3	0.0	SE	0.00	5.0	SE	32.8	32.7	32.7	30.150	0.00	0.00	1.342	0.000	80.2	23	39.0	77.5	1404	1	100.0	60
02/03/19	7:00 a	32.5	32.8	32.5	95	31.2	0.0	SE	0.00	4.0	SE	32.5	32.4	32.4	30.160	0.00	0.00	1.354	0.000	79.2	23	38.2	76.6	1405	1	100.0	60
02/03/19	8:00 a	33.2	33.2	32.4	96	32.2	0.0	SE	0.00	5.0	SE	33.2	33.1	33.1	30.167	0.00	0.00	1.325	0.000	80.3	23	39.1	77.6	1405	1	100.0	60
02/03/19	9:00 a	36.8	36.8	33.3	98	36.3	0.0	SE	0.00	5.0	SE	36.8	36.9	36.9	30.182	0.00	0.00	1.175	0.000	82.0	23	40.5	79.3	1405	1	100.0	60
02/03/19	10:00 a	42.6	42.6	36.8	96	41.5	4.0	SW	4.00	7.0	SSW	40.3	42.7	40.4	30.183	0.00	0.00	0.933	0.000	82.4	23	40.9	79.7	1405	1	100.0	60
02/03/19	11:00 a	50.6	50.6	42.7	76	43.3	4.0	SW	4.00	7.0	S	49.6	50.4	49.4	30.177	0.00	0.00	0.600	0.000	82.1	23	40.6	79.4	1405	1	100.0	60
02/03/19	12:00 p	56.8	56.8	50.7	66	45.6	5.0	S	5.00	11.0	SW	56.2	55.8	55.2	30.149	0.00	0.00	0.342	0.000	83.8	23	42.0	81.1	1405	1	100.0	60
02/03/19	1:00 p	61.9	61.9	56.8	54	45.1	6.0	S	6.00	13.0	SSW	61.9	60.3	60.3	30.116	0.00	0.00	0.129	0.000	84.5	23	42.6	81.7	1405	1	100.0	60
02/03/19	2:00 p	64.1	64.1	61.9	50	45.1	7.0	S	7.00	15.0	SSE	64.1	62.3	62.3	30.074	0.00	0.00	0.038	0.000	84.7	24	43.9	82.0	1405	1	100.0	60
02/03/19	3:00 p	64.6	64.7	64.1	49	45.0	10.0	S	10.00	16.0	S	62.3	62.8	60.5	30.061	0.00	0.00	0.017	0.000	86.1	24	45.1	83.4	1405	1	100.0	60
02/03/19	4:00 p	63.0	64.7	63.0	52	45.1	10.0	SSE	10.00	18.0	SSE	60.5	61.3	58.8	30.076	0.00	0.00	0.083	0.000	86.1	24	45.1	83.4	1405	1	100.0	60
02/03/19	5:00 p	59.2	63.0	59.2	57	44.0	10.0	SSE	10.00	18.0	SSW	56.0	57.7	54.5	30.078	0.00	0.00	0.242	0.000	85.8	25	45.9	83.2	1405	1	100.0	60
02/03/19	6:00 p	56.2	59.2	56.2	63	43.8	7.0	SSE	7.00	16.0	SSE	54.6	55.1	53.5	30.078	0.00	0.00	0.367	0.000	84.3	25	44.6	81.8	1404	1	100.0	60
02/03/19	7:00 p	54.6	56.2	54.6	66	43.5	4.0	SSE	4.00	7.0	SSE	54.2	53.6	53.2	30.073	0.00	0.00	0.433	0.000	83.2	25	43.7	80.6	1405	1	100.0	60
02/03/19	8:00 p	53.0	54.6	53.0	70	43.5	0.0	S	0.00	5.0	S	53.0	52.3	52.3	30.064	0.00	0.00	0.500	0.000	82.2	26	43.9	79.8	1405	1	100.0	60
02/03/19	9:00 p	51.4	53.0	51.3	74	43.4	4.0	S	4.00	6.0	S	50.5	51.0	50.1	30.077	0.00	0.00	0.567	0.000	81.2	26	43.0	78.7	1405	1	100.0	60
02/03/19	10:00 p	50.4	51.4	50.4	77	43.5	0.0	S	0.00	5.0	S	50.4	50.2	50.2	30.056	0.00	0.00	0.608	0.000	81.1	26	43.0	78.6	1405	1	100.0	60
02/03/19	11:00 p	49.7	50.4	49.7	80	43.8	0.0	S	0.00	5.0	S	49.7	49.7	49.7	30.065	0.00	0.00	0.637	0.000	80.6	26	42.5	78.2	1405	1	100.0	60
02/04/19	12:00 a	49.8	49.8	49.6	78	43.2	4.0	NE	4.00	7.0	NE	48.7	49.7	48.6	30.055	0.00	0.00	0.633	0.000	80.0	26	42.0	77.6	1405	1	100.0	60
MONDAY			Temp	Hi	Low	Out	Dew	Wind	Wind	Wind	Hi	Hi	Wind	Heat	THW			Rain	Heat	Cool	In 	In	In 	In 	Wind	Wind	ISS 	Arc.
Date		Time	Out	Temp	Temp	Hum	Pt.	Speed	Dir	Run	Speed	Dir	Chill	Index	Index	Bar  	Rain	Rate	D-D 	D-D 	Temp	Hum	Dew	Heat	Samp	Tx 	Recept	Int.
02/04/19	1:00 a	49.6	49.9	49.6	76	42.3	4.0	NE	4.00	10.0	NE	48.4	49.4	48.2	30.034	0.00	0.00	0.642	0.000	80.0	26	42.0	77.6	1404	1	100.0	60
02/04/19	2:00 a	48.8	49.6	48.8	77	41.9	4.0	NNW	4.00	10.0	NNW	47.5	48.6	47.3	30.026	0.00	0.00	0.675	0.000	79.9	26	41.9	77.5	1405	1	100.0	60
02/04/19	3:00 a	48.7	48.8	48.7	78	42.1	4.0	N	4.00	7.0	NNE	47.4	48.5	47.2	30.011	0.00	0.00	0.679	0.000	80.0	26	42.0	77.6	1405	1	100.0	60
02/04/19	4:00 a	48.5	48.7	48.4	81	42.9	5.0	NNW	5.00	11.0	NNW	46.5	48.4	46.4	29.999	0.00	0.00	0.688	0.000	80.0	26	42.0	77.6	1405	1	100.0	60
02/04/19	5:00 a	48.2	48.4	48.0	83	43.3	6.0	NNW	6.00	14.0	NE	45.5	48.2	45.5	30.004	0.00	0.00	0.700	0.000	79.9	26	41.9	77.5	1404	1	100.0	60
02/04/19	6:00 a	48.8	48.8	48.2	81	43.2	6.0	NE	6.00	15.0	NE	46.3	48.7	46.2	30.012	0.00	0.00	0.675	0.000	79.9	28	43.9	77.7	1405	1	100.0	60
02/04/19	7:00 a	48.7	48.8	48.6	80	42.8	6.0	NE	6.00	14.0	ENE	46.1	48.6	46.0	30.014	0.00	0.00	0.679	0.000	80.5	27	43.4	78.2	1405	1	100.0	60
02/04/19	8:00 a	48.3	48.7	48.3	81	42.7	6.0	N	6.00	17.0	NNW	45.7	48.2	45.6	30.020	0.00	0.00	0.696	0.000	80.6	27	43.5	78.3	1405	1	100.0	60
02/04/19	9:00 a	49.3	49.3	48.1	80	43.4	6.0	NE	6.00	15.0	NNW	46.9	49.2	46.8	30.033	0.00	0.00	0.654	0.000	80.7	27	43.6	78.4	1405	1	100.0	60
02/04/19	10:00 a	53.4	53.4	49.3	71	44.2	11.0	NE	11.00	19.0	ENE	48.7	52.7	48.0	30.032	0.00	0.00	0.483	0.000	81.3	27	44.1	79.0	1405	1	100.0	60
02/04/19	11:00 a	57.2	57.2	53.4	60	43.4	12.0	NE	12.00	25.0	NE	52.5	55.9	51.2	30.036	0.00	0.00	0.325	0.000	81.7	27	44.5	79.4	1405	1	100.0	60
02/04/19	12:00 p	56.9	57.2	56.7	63	44.4	14.0	NE	14.00	26.0	ENE	51.4	55.8	50.3	30.020	0.00	0.00	0.337	0.000	82.5	27	45.1	80.2	1405	1	100.0	60
02/04/19	1:00 p	56.5	57.0	56.5	67	45.7	13.0	NE	13.00	22.0	NE	51.3	55.6	50.4	30.004	0.00	0.00	0.354	0.000	83.4	26	44.9	81.0	1405	1	100.0	60
02/04/19	2:00 p	56.2	56.5	55.9	68	45.8	10.0	NE	10.00	18.0	NE	52.5	55.3	51.6	29.994	0.00	0.00	0.367	0.000	83.5	27	46.0	81.2	1405	1	100.0	60
02/04/19	3:00 p	55.9	56.3	55.5	67	45.1	10.0	N	10.00	17.0	N	52.2	55.0	51.3	29.983	0.00	0.00	0.379	0.000	83.0	27	45.6	80.6	1405	1	100.0	60
02/04/19	4:00 p	56.3	56.8	55.9	65	44.7	10.0	NE	10.00	18.0	NNW	52.7	55.3	51.7	29.975	0.00	0.00	0.363	0.000	83.4	27	45.9	81.1	1405	1	100.0	60
02/04/19	5:00 p	54.4	56.3	54.4	67	43.7	7.0	NNW	7.00	17.0	NNW	52.5	53.5	51.6	29.980	0.00	0.00	0.442	0.000	83.3	27	45.8	81.0	1404	1	100.0	60
02/04/19	6:00 p	53.6	54.4	53.6	69	43.7	7.0	NNW	7.00	15.0	NNW	51.5	52.8	50.7	29.969	0.00	0.00	0.475	0.000	83.2	27	45.7	80.9	1405	1	100.0	60
02/04/19	7:00 p	51.5	53.6	51.5	72	42.8	6.0	NNW	6.00	13.0	NNW	49.5	51.0	49.0	29.975	0.00	0.00	0.563	0.000	81.8	28	45.5	79.6	1405	1	100.0	60
02/04/19	8:00 p	49.9	51.5	49.9	76	42.6	5.0	NE	5.00	11.0	ENE	48.1	49.7	47.9	29.974	0.00	0.00	0.629	0.000	81.8	28	45.5	79.6	1405	1	100.0	60
02/04/19	9:00 p	49.0	49.9	49.0	78	42.4	5.0	NNW	5.00	11.0	NNW	47.0	48.8	46.8	29.985	0.00	0.00	0.667	0.000	81.8	28	45.5	79.6	1405	1	100.0	60
02/04/19	10:00 p	47.5	49.0	47.5	80	41.6	0.0	NW	0.00	6.0	NW	47.5	47.4	47.4	29.981	0.00	0.00	0.729	0.000	80.5	28	44.4	78.3	1405	1	100.0	60
02/04/19	11:00 p	46.0	47.5	46.0	85	41.7	4.0	NW	4.00	7.0	NW	44.2	46.0	44.2	29.978	0.00	0.00	0.792	0.000	80.3	28	44.2	78.1	1405	1	100.0	60
02/05/19	12:00 a	44.9	46.1	44.9	85	40.7	0.0	NNW	0.00	6.0	NNW	44.9	44.8	44.8	29.964	0.00	0.00	0.837	0.000	80.5	28	44.4	78.3	1405	1	100.0	60
TUESDAY			Temp	Hi	Low	Out	Dew	Wind	Wind	Wind	Hi	Hi	Wind	Heat	THW			Rain	Heat	Cool	In 	In	In 	In 	Wind	Wind	ISS 	Arc.
Date		Time	Out	Temp	Temp	Hum	Pt.	Speed	Dir	Run	Speed	Dir	Chill	Index	Index	Bar  	Rain	Rate	D-D 	D-D 	Temp	Hum	Dew	Heat	Samp	Tx 	Recept	Int.
02/05/19	1:00 a	43.6	44.9	43.6	88	40.3	4.0	NNW	4.00	6.0	NNW	41.5	43.6	41.5	29.968	0.00	0.00	0.892	0.000	81.2	28	45.0	79.0	1404	1	100.0	60
02/05/19	2:00 a	42.5	43.6	42.5	90	39.8	4.0	NW	4.00	6.0	NNW	40.2	42.5	40.2	29.957	0.00	0.00	0.938	0.000	81.1	27	43.9	78.7	1405	1	100.0	60
02/05/19	3:00 a	41.9	42.5	41.9	91	39.5	0.0	NNW	0.00	6.0	NW	41.9	41.9	41.9	29.959	0.00	0.00	0.962	0.000	80.7	27	43.6	78.4	1405	1	100.0	60
02/05/19	4:00 a	40.7	41.9	40.7	93	38.8	4.0	NNW	4.00	11.0	W	38.1	40.7	38.1	29.958	0.00	0.00	1.012	0.000	80.4	27	43.3	78.1	1404	1	100.0	60
02/05/19	5:00 a	39.9	40.7	39.9	93	38.0	0.0	W	0.00	5.0	W	39.9	39.9	39.9	29.956	0.00	0.00	1.046	0.000	80.9	27	43.8	78.5	1405	1	100.0	60
02/05/19	6:00 a	38.6	39.9	38.6	93	36.8	0.0	W	0.00	4.0	W	38.6	38.6	38.6	29.965	0.00	0.00	1.100	0.000	80.7	27	43.6	78.4	1405	1	100.0	60
02/05/19	7:00 a	37.6	38.6	37.6	93	35.8	0.0	W	0.00	5.0	W	37.6	37.6	37.6	29.982	0.00	0.00	1.142	0.000	79.1	27	42.2	77.0	1405	1	100.0	60
02/05/19	8:00 a	37.6	37.6	37.4	95	36.3	0.0	W	0.00	5.0	W	37.6	37.6	37.6	30.001	0.00	0.00	1.142	0.000	80.8	27	43.7	78.5	1405	1	100.0	60
02/05/19	9:00 a	43.9	43.9	37.6	99	43.6	0.0	W	0.00	6.0	W	43.9	44.3	44.3	30.019	0.00	0.00	0.879	0.000	82.2	26	43.9	79.8	1405	1	100.0	60
02/05/19	10:00 a	51.5	51.5	44.0	80	45.5	4.0	WSW	4.00	7.0	WSW	50.6	51.4	50.5	30.028	0.00	0.00	0.563	0.000	82.7	29	47.2	80.6	1405	1	100.0	60
02/05/19	11:00 a	58.8	58.8	51.5	63	46.2	4.0	NW	4.00	11.0	WNW	58.8	57.7	57.7	30.020	0.00	0.00	0.258	0.000	83.7	30	49.0	81.9	1405	1	100.0	60
02/05/19	12:00 p	63.4	63.4	58.9	56	47.4	5.0	S	5.00	11.0	W	63.4	62.1	62.1	29.993	0.00	0.00	0.067	0.000	84.8	29	49.0	82.9	1405	1	100.0	60
02/05/19	1:00 p	66.8	66.8	63.4	52	48.6	5.0	WSW	5.00	12.0	WNW	66.8	65.6	65.6	29.975	0.00	0.00	0.000	0.075	85.0	29	49.2	83.0	1405	1	100.0	60
02/05/19	2:00 p	69.0	69.0	66.8	49	49.0	6.0	NNW	6.00	14.0	NNW	69.0	67.5	67.5	29.968	0.00	0.00	0.000	0.167	85.4	29	49.5	83.5	1405	1	100.0	60
02/05/19	3:00 p	69.0	69.3	69.0	50	49.6	7.0	NNW	7.00	17.0	NW	69.0	67.6	67.6	29.977	0.00	0.00	0.000	0.167	87.9	28	50.7	85.3	1404	1	100.0	60
02/05/19	4:00 p	68.6	69.1	68.6	46	47.0	7.0	NNW	7.00	14.0	NNW	68.6	66.8	66.8	29.984	0.00	0.00	0.000	0.150	88.0	29	51.8	85.5	1405	1	100.0	60
02/05/19	5:00 p	67.9	68.6	67.9	49	48.0	5.0	NNW	5.00	11.0	NNW	67.9	66.5	66.5	29.994	0.00	0.00	0.000	0.121	87.1	29	51.0	85.1	1405	1	100.0	60
02/05/19	6:00 p	65.3	67.9	65.3	53	47.7	4.0	NNW	4.00	10.0	N	65.3	63.9	63.9	30.015	0.00	0.00	0.000	0.013	86.0	29	50.0	84.1	1405	1	100.0	60
02/05/19	7:00 p	60.5	65.3	60.5	61	47.0	0.0	NNW	0.00	5.0	NNW	60.5	59.3	59.3	30.039	0.00	0.00	0.188	0.000	86.3	28	49.4	84.2	1405	1	100.0	60
02/05/19	8:00 p	56.5	60.5	56.5	68	46.1	0.0	NNW	0.00	4.0	NNW	56.5	55.6	55.6	30.046	0.00	0.00	0.354	0.000	85.0	29	49.2	83.0	1405	1	100.0	60
02/05/19	9:00 p	53.7	56.5	53.7	72	44.9	0.0	NNW	0.00	5.0	NNW	53.7	53.1	53.1	30.060	0.00	0.00	0.471	0.000	84.6	29	48.8	82.7	1405	1	100.0	60
02/05/19	10:00 p	51.7	53.7	51.7	76	44.4	4.0	S	4.00	7.0	S	50.8	51.4	50.5	30.067	0.00	0.00	0.554	0.000	84.1	29	48.4	82.2	1405	1	100.0	60
02/05/19	11:00 p	50.9	51.7	50.9	78	44.3	0.0	S	0.00	7.0	S	50.9	50.7	50.7	30.077	0.00	0.00	0.587	0.000	83.7	28	47.1	81.6	1405	1	100.0	60
02/06/19	12:00 a	49.4	50.9	49.4	81	43.8	0.0	S	0.00	6.0	S	49.4	49.4	49.4	30.085	0.00	0.00	0.650	0.000	82.3	29	46.9	80.3	1405	1	100.0	60
WEDNESDAY			Temp	Hi	Low	Out	Dew	Wind	Wind	Wind	Hi	Hi	Wind	Heat	THW			Rain	Heat	Cool	In 	In	In 	In 	Wind	Wind	ISS 	Arc.
Date		Time	Out	Temp	Temp	Hum	Pt.	Speed	Dir	Run	Speed	Dir	Chill	Index	Index	Bar  	Rain	Rate	D-D 	D-D 	Temp	Hum	Dew	Heat	Samp	Tx 	Recept	Int.
02/06/19	1:00 a	49.6	49.6	49.1	84	45.0	4.0	S	4.00	10.0	SSE	48.4	49.7	48.5	30.079	0.00	0.00	0.642	0.000	81.2	29	45.9	79.1	1404	1	100.0	60
02/06/19	2:00 a	49.9	50.0	49.6	83	44.9	4.0	SSE	4.00	7.0	SSE	48.8	50.0	48.9	30.077	0.00	0.00	0.629	0.000	81.0	29	45.7	78.9	1404	1	100.0	60
02/06/19	3:00 a	49.5	49.9	49.4	85	45.2	0.0	SSE	0.00	6.0	SSE	49.5	49.6	49.6	30.094	0.00	0.00	0.646	0.000	80.1	29	45.0	78.0	1405	1	100.0	60
02/06/19	4:00 a	50.3	50.3	49.4	86	46.3	4.0	SSE	4.00	7.0	SSE	49.2	50.4	49.3	30.099	0.00	0.00	0.613	0.000	80.1	29	45.0	78.0	1405	1	100.0	60
02/06/19	5:00 a	50.1	50.6	50.1	84	45.5	0.0	E	0.00	5.0	E	50.1	50.2	50.2	30.101	0.00	0.00	0.621	0.000	80.1	29	45.0	78.0	1405	1	100.0	60
02/06/19	6:00 a	48.0	50.1	48.0	86	44.0	0.0	E	0.00	6.0	E	48.0	48.0	48.0	30.111	0.00	0.00	0.708	0.000	80.1	29	45.0	78.0	1405	1	100.0	60
02/06/19	7:00 a	46.5	48.0	46.5	87	42.8	0.0	E	0.00	5.0	E	46.5	46.6	46.6	30.120	0.00	0.00	0.771	0.000	79.8	29	44.7	77.7	1405	1	100.0	60
02/06/19	8:00 a	46.1	46.5	45.9	91	43.6	4.0	E	4.00	10.0	SE	44.3	46.2	44.4	30.125	0.00	0.00	0.788	0.000	80.4	30	46.1	78.4	1405	1	100.0	60
02/06/19	9:00 a	50.3	50.3	46.1	89	47.2	6.0	SSE	6.00	14.0	SSE	48.1	50.5	48.3	30.128	0.00	0.00	0.613	0.000	80.0	30	45.8	78.0	1405	1	100.0	60
02/06/19	10:00 a	57.2	57.2	50.3	78	50.4	7.0	SSE	7.00	17.0	SSE	55.8	56.8	55.4	30.126	0.00	0.00	0.325	0.000	81.2	30	46.8	79.2	1405	1	100.0	60
02/06/19	11:00 a	63.6	63.6	57.2	68	52.8	11.0	SSE	11.00	18.0	SSE	60.5	63.2	60.1	30.122	0.00	0.00	0.058	0.000	82.9	29	47.4	80.8	1405	1	100.0	60
02/06/19	12:00 p	68.7	68.7	63.6	59	53.8	14.0	S	14.00	24.0	S	64.7	68.1	64.1	30.100	0.00	0.00	0.000	0.154	84.4	29	48.7	82.5	1405	1	100.0	60
02/06/19	1:00 p	72.2	72.2	68.7	54	54.6	13.0	S	13.00	25.0	SSE	68.8	71.7	68.3	30.065	0.00	0.00	0.000	0.300	84.8	30	49.9	83.0	1405	1	100.0	60
02/06/19	2:00 p	74.2	74.2	72.2	53	56.0	14.0	S	14.00	25.0	SSE	70.6	74.3	70.7	30.042	0.00	0.00	0.000	0.383	85.4	30	50.4	83.6	1405	1	100.0	60
02/06/19	3:00 p	75.0	75.3	74.2	54	57.2	13.0	S	13.00	26.0	S	71.8	75.4	72.2	30.024	0.00	0.00	0.000	0.417	86.3	30	51.2	84.6	1404	1	100.0	60
02/06/19	4:00 p	74.3	75.0	74.3	55	57.1	13.0	S	13.00	24.0	SSE	71.0	74.6	71.3	30.016	0.00	0.00	0.000	0.388	86.4	31	52.2	84.9	1405	1	100.0	60
02/06/19	5:00 p	72.4	74.3	72.4	58	56.8	11.0	S	11.00	22.0	SSE	69.8	72.3	69.7	30.013	0.00	0.00	0.000	0.308	86.0	31	51.8	84.5	1405	1	100.0	60
02/06/19	6:00 p	70.4	72.4	70.4	62	56.8	11.0	S	11.00	20.0	SSE	67.8	69.9	67.3	30.019	0.00	0.00	0.000	0.225	85.5	31	51.4	84.0	1405	1	100.0	60
02/06/19	7:00 p	68.7	70.4	68.7	68	57.7	11.0	S	11.00	20.0	S	66.1	69.0	66.4	30.014	0.00	0.00	0.000	0.154	85.6	31	51.5	84.1	1405	1	100.0	60
02/06/19	8:00 p	67.6	68.8	67.6	70	57.5	12.0	S	12.00	25.0	S	64.5	68.1	65.0	30.011	0.00	0.00	0.000	0.108	84.8	32	51.7	83.4	1405	1	100.0	60
02/06/19	9:00 p	66.7	67.6	66.7	72	57.4	11.0	S	11.00	22.0	SSE	64.1	67.2	64.6	30.003	0.00	0.00	0.000	0.071	84.3	32	51.2	83.0	1405	1	100.0	60
02/06/19	10:00 p	65.7	66.7	65.7	75	57.6	7.0	SSW	7.00	16.0	S	65.7	66.1	66.1	29.998	0.00	0.00	0.000	0.029	83.7	32	50.7	82.3	1405	1	100.0	60
02/06/19	11:00 p	64.9	65.7	64.9	79	58.2	7.0	S	7.00	15.0	S	64.9	65.5	65.5	30.000	0.00	0.00	0.004	0.000	83.2	32	50.3	81.6	1405	1	100.0	60
02/07/19	12:00 a	65.0	65.0	64.7	83	59.7	10.0	SSW	10.00	24.0	WSW	62.8	65.8	63.6	29.999	0.00	0.00	0.000	0.000	82.7	32	49.8	81.0	1405	1	100.0	60
THURSDAY		Temp	Hi	Low	Out	Dew	Wind	Wind	Wind	Hi	Hi	Wind	Heat	THW			Rain	Heat	Cool	In 	In	In 	In 	Wind	Wind	ISS 	Arc.
Date		Time	Out	Temp	Temp	Hum	Pt.	Speed	Dir	Run	Speed	Dir	Chill	Index	Index	Bar  	Rain	Rate	D-D 	D-D 	Temp	Hum	Dew	Heat	Samp	Tx 	Recept	Int.
02/07/19	1:00 a	64.8	65.1	64.8	84	59.9	7.0	SSW	7.00	21.0	SSE	64.8	65.5	65.5	29.989	0.00	0.00	0.008	0.000	82.2	33	50.2	80.7	1404	1	100.0	60
02/07/19	2:00 a	64.5	64.8	64.5	86	60.2	7.0	SSW	7.00	20.0	WSW	64.5	65.2	65.2	29.991	0.00	0.00	0.021	0.000	81.9	33	50.0	80.3	1405	1	100.0	60
02/07/19	3:00 a	64.6	64.6	64.5	86	60.3	7.0	SSW	7.00	17.0	SW	64.6	65.4	65.4	29.994	0.00	0.00	0.017	0.000	81.8	33	49.9	80.2	1405	1	100.0	60
02/07/19	4:00 a	64.2	64.7	64.2	88	60.6	6.0	SSW	6.00	15.0	S	64.2	65.0	65.0	29.990	0.00	0.00	0.033	0.000	81.6	33	49.7	80.0	1404	1	100.0	60
02/07/19	5:00 a	63.7	64.2	63.7	89	60.4	6.0	SSW	6.00	13.0	S	63.7	64.4	64.4	29.992	0.00	0.00	0.054	0.000	81.7	33	49.8	80.1	1405	1	100.0	60
02/07/19	6:00 a	63.1	63.7	63.0	90	60.1	6.0	SSW	6.00	15.0	SW	63.1	63.8	63.8	29.990	0.00	0.00	0.079	0.000	81.6	33	49.7	80.0	1405	1	100.0	60
02/07/19	7:00 a	62.9	63.1	62.9	91	60.2	5.0	SW	5.00	13.0	SW	62.9	63.6	63.6	30.009	0.00	0.00	0.087	0.000	81.2	33	49.4	79.5	1405	1	100.0	60
02/07/19	8:00 a	62.5	62.9	62.5	92	60.1	4.0	SW	4.00	7.0	S	62.5	63.2	63.2	30.022	0.00	0.00	0.104	0.000	80.8	34	49.8	79.2	1405	1	100.0	60
02/07/19	9:00 a	64.1	64.1	62.5	94	62.3	6.0	S	6.00	15.0	SW	64.1	65.1	65.1	30.014	0.00	0.00	0.038	0.000	81.4	34	50.3	79.9	1405	1	100.0	60
02/07/19	10:00 a	69.3	69.3	64.1	85	64.6	7.0	SW	7.00	19.0	W	69.3	71.0	71.0	30.037	0.00	0.00	0.000	0.179	82.3	33	50.3	80.8	1405	1	100.0	60
02/07/19	11:00 a	70.2	70.4	69.3	82	64.4	7.0	W	7.00	19.0	SW	70.2	71.5	71.5	30.052	0.00	0.00	0.000	0.217	82.8	34	51.6	81.4	1405	1	100.0	60
02/07/19	12:00 p	71.2	71.3	70.2	81	65.1	6.0	W	6.00	16.0	W	71.2	72.6	72.6	30.038	0.00	0.00	0.000	0.258	83.1	34	51.8	81.8	1405	1	100.0	60
02/07/19	1:00 p	60.8	71.2	60.8	77	53.5	6.0	ENE	6.00	15.0	NE	60.6	60.6	60.4	30.018	0.00	0.00	0.175	0.000	83.1	35	52.6	82.0	1405	1	100.0	60
02/07/19	2:00 p	65.6	65.6	60.3	82	60.0	5.0	SE	5.00	11.0	SSE	65.6	66.5	66.5	29.991	0.00	0.00	0.000	0.025	83.8	34	52.4	82.8	1405	1	100.0	60
02/07/19	3:00 p	73.2	73.2	65.6	77	65.6	11.0	SSW	11.00	22.0	S	70.7	74.9	72.4	29.960	0.00	0.00	0.000	0.342	86.1	34	54.5	85.2	1405	1	100.0	60
02/07/19	4:00 p	75.0	75.0	73.2	73	65.8	11.0	SSW	11.00	23.0	SW	72.6	76.9	74.5	29.970	0.00	0.00	0.000	0.417	87.0	34	55.2	86.0	1405	1	100.0	60
02/07/19	5:00 p	75.5	75.5	75.0	73	66.2	7.0	SSW	7.00	21.0	SW	75.5	77.6	77.6	29.968	0.00	0.00	0.000	0.438	86.9	35	56.0	86.1	1404	1	100.0	60
02/07/19	6:00 p	63.0	75.5	63.0	71	53.4	6.0	NNW	6.00	15.0	N	63.0	62.7	62.7	30.002	0.00	0.00	0.083	0.000	86.3	35	55.4	85.6	1405	1	100.0	60
02/07/19	7:00 p	56.0	63.0	56.0	88	52.5	6.0	ENE	6.00	13.0	E	54.8	56.0	54.8	30.000	0.00	0.00	0.375	0.000	85.4	35	54.6	84.6	1405	1	100.0	60
02/07/19	8:00 p	56.2	56.2	56.0	90	53.3	4.0	ENE	4.00	6.0	ENE	56.0	56.3	56.1	29.989	0.00	0.00	0.367	0.000	84.4	35	53.8	83.7	1405	1	100.0	60
02/07/19	9:00 p	56.0	56.2	56.0	91	53.4	0.0	ENE	0.00	6.0	ENE	56.0	56.1	56.1	29.980	0.00	0.00	0.375	0.000	83.4	35	52.9	82.4	1405	1	100.0	60
02/07/19	10:00 p	55.1	56.0	55.1	91	52.5	0.0	ENE	0.00	6.0	ENE	55.1	55.2	55.2	29.982	0.00	0.00	0.413	0.000	83.2	35	52.7	82.1	1405	1	100.0	60
02/07/19	11:00 p	55.1	55.1	54.8	94	53.4	4.0	ENE	4.00	7.0	SSE	54.7	55.3	54.9	29.968	0.00	0.00	0.413	0.000	82.3	35	51.9	81.0	1405	1	100.0	60
02/08/19	12:00 a	61.3	61.3	55.1	99	61.0	6.0	S	6.00	14.0	SSE	61.2	62.0	61.9	29.962	0.00	0.00	0.154	0.000	81.9	35	51.6	80.6	1406	1	100.0	60
FRIDAY			Temp	Hi	Low	Out	Dew	Wind	Wind	Wind	Hi	Hi	Wind	Heat	THW			Rain	Heat	Cool	In 	In	In 	In 	Wind	Wind	ISS 	Arc.
Date		Time	Out	Temp	Temp	Hum	Pt.	Speed	Dir	Run	Speed	Dir	Chill	Index	Index	Bar  	Rain	Rate	D-D 	D-D 	Temp	Hum	Dew	Heat	Samp	Tx 	Recept	Int.
02/08/19	1:00 a	64.3	64.3	61.3	92	61.9	7.0	SSW	7.00	18.0	SW	64.3	65.2	65.2	29.951	0.00	0.00	0.029	0.000	82.2	35	51.8	80.9	1403	1	100.0	60
02/08/19	2:00 a	65.3	65.3	64.3	88	61.7	10.0	SSW	10.00	20.0	WSW	63.2	66.3	64.2	29.940	0.00	0.00	0.000	0.013	81.8	36	52.2	80.6	1405	1	100.0	60
02/08/19	3:00 a	64.6	65.3	64.6	88	61.0	10.0	SSW	10.00	21.0	SW	62.3	65.4	63.1	29.932	0.00	0.00	0.017	0.000	82.3	36	52.7	81.2	1405	1	100.0	60
02/08/19	4:00 a	63.5	64.6	63.5	89	60.2	7.0	SSW	7.00	18.0	SW	63.5	64.2	64.2	29.934	0.00	0.00	0.063	0.000	81.7	36	52.1	80.5	1404	1	100.0	60
02/08/19	5:00 a	62.7	63.5	62.7	89	59.4	10.0	SSW	10.00	21.0	SW	60.1	63.3	60.7	29.948	0.00	0.00	0.096	0.000	82.0	36	52.4	80.8	1406	1	100.0	60
02/08/19	6:00 a	62.2	62.7	62.2	89	58.9	7.0	SSW	7.00	16.0	SW	61.9	62.7	62.4	29.961	0.00	0.00	0.117	0.000	81.4	36	51.9	80.1	1404	1	100.0	60
02/08/19	7:00 a	61.6	62.2	61.6	90	58.6	7.0	SSW	7.00	17.0	SW	61.2	62.1	61.7	29.978	0.00	0.00	0.142	0.000	81.0	36	51.5	79.6	1405	1	100.0	60
02/08/19	8:00 a	61.9	61.9	61.5	91	59.2	7.0	SW	7.00	20.0	SW	61.6	62.4	62.1	30.008	0.00	0.00	0.129	0.000	80.8	36	51.4	79.4	1405	1	100.0	60
02/08/19	9:00 a	64.9	64.9	61.9	86	60.6	7.0	SW	7.00	19.0	SW	64.9	65.7	65.7	30.014	0.00	0.00	0.004	0.000	81.1	36	51.6	79.7	1405	1	100.0	60
02/08/19	10:00 a	68.4	68.4	64.9	79	61.6	7.0	SW	7.00	20.0	SSW	68.4	69.7	69.7	30.014	0.00	0.00	0.000	0.142	82.7	36	53.0	81.6	1405	1	100.0	60
02/08/19	11:00 a	71.4	71.4	68.4	68	60.3	7.0	SW	7.00	18.0	SW	71.4	71.7	71.7	30.004	0.00	0.00	0.000	0.267	84.3	35	53.7	83.6	1405	1	100.0	60
02/08/19	12:00 p	74.5	74.5	71.4	56	57.8	10.0	SW	10.00	24.0	SW	72.5	74.9	72.9	29.977	0.00	0.00	0.000	0.396	85.9	35	55.1	85.2	1405	1	100.0	60
02/08/19	1:00 p	76.7	76.7	74.5	54	58.8	10.0	SW	10.00	20.0	WSW	74.8	76.9	75.0	29.966	0.00	0.00	0.000	0.487	86.7	35	55.8	85.9	1405	1	100.0	60
02/08/19	2:00 p	76.6	77.2	76.5	55	59.2	12.0	W	12.00	28.0	W	74.0	76.9	74.3	29.979	0.00	0.00	0.000	0.483	87.3	36	57.1	86.6	1405	1	100.0	60
02/08/19	3:00 p	71.8	77.0	71.8	49	51.6	12.0	WNW	12.00	28.0	NNW	68.8	70.7	67.7	30.026	0.00	0.00	0.000	0.283	87.6	36	57.3	86.8	1405	1	100.0	60
02/08/19	4:00 p	67.6	71.7	67.6	47	46.6	14.0	NNW	14.00	26.0	NNW	63.6	66.0	62.0	30.054	0.00	0.00	0.000	0.108	87.9	35	56.8	86.7	1405	1	100.0	60
02/08/19	5:00 p	67.1	68.3	67.1	31	35.4	12.0	NW	12.00	25.0	NNE	63.9	63.6	60.4	30.091	0.00	0.00	0.000	0.087	87.3	35	56.3	86.4	1405	1	100.0	60
02/08/19	6:00 p	64.7	67.1	64.7	26	29.0	12.0	WNW	12.00	27.0	WNW	61.1	60.3	56.7	30.127	0.00	0.00	0.013	0.000	86.2	35	55.3	85.5	1405	1	100.0	60
02/08/19	7:00 p	62.2	64.7	62.2	31	31.2	6.0	WNW	6.00	15.0	NW	62.2	58.7	58.7	30.169	0.00	0.00	0.117	0.000	85.6	34	54.0	84.7	1404	1	100.0	60
02/08/19	8:00 p	60.1	62.2	60.0	34	31.6	7.0	NW	7.00	20.0	NW	59.3	56.9	56.1	30.217	0.00	0.00	0.204	0.000	84.0	34	52.6	83.1	1406	1	100.0	60
02/08/19	9:00 p	57.0	60.0	57.0	28	24.2	11.0	WNW	11.00	21.0	WSW	52.9	53.6	49.5	30.263	0.00	0.00	0.333	0.000	82.7	35	52.3	81.5	1404	1	100.0	60
02/08/19	10:00 p	54.4	57.0	54.4	29	22.8	10.0	NW	10.00	24.0	W	50.4	51.5	47.5	30.298	0.00	0.00	0.442	0.000	82.4	34	51.2	81.0	1405	1	100.0	60
02/08/19	11:00 p	52.0	54.4	52.0	32	23.0	7.0	NW	7.00	21.0	NW	49.6	49.7	47.3	30.324	0.00	0.00	0.542	0.000	81.2	34	50.2	79.6	1405	1	100.0	60
02/09/19	12:00 a	50.5	52.0	50.5	37	25.2	11.0	NW	11.00	19.0	WNW	45.3	48.8	43.6	30.352	0.00	0.00	0.604	0.000	81.5	33	49.6	79.9	1405	1	100.0	60
SATURDAY		Temp	Hi	Low	Out	Dew	Wind	Wind	Wind	Hi	Hi	Wind	Heat	THW			Rain	Heat	Cool	In 	In	In 	In 	Wind	Wind	ISS 	Arc.
Date		Time	Out	Temp	Temp	Hum	Pt.	Speed	Dir	Run	Speed	Dir	Chill	Index	Index	Bar  	Rain	Rate	D-D 	D-D 	Temp	Hum	Dew	Heat	Samp	Tx 	Recept	Int.
02/09/19	1:00 a	48.8	50.5	48.8	42	26.7	10.0	NNW	10.00	20.0	NW	43.9	47.4	42.5	30.375	0.00	0.00	0.675	0.000	80.2	33	48.5	78.5	1404	1	100.0	60
02/09/19	2:00 a	44.5	48.8	44.5	46	25.0	12.0	NNW	12.00	22.0	NNW	38.0	43.2	36.7	30.410	0.00	0.00	0.854	0.000	79.0	33	47.4	77.6	1405	1	100.0	60
02/09/19	3:00 a	42.2	44.5	42.2	48	23.9	13.0	NNW	13.00	24.0	NNW	35.0	41.1	33.9	30.438	0.00	0.00	0.950	0.000	78.6	31	45.4	77.0	1405	1	100.0	60
02/09/19	4:00 a	40.4	42.2	40.4	48	22.2	10.0	NNW	10.00	19.0	NW	34.1	39.3	33.0	30.480	0.00	0.00	1.025	0.000	78.4	31	45.3	76.8	1405	1	100.0	60
02/09/19	5:00 a	39.4	40.4	39.3	51	22.8	10.0	NNW	10.00	20.0	NNW	32.9	38.4	31.9	30.516	0.00	0.00	1.067	0.000	78.1	30	44.1	76.5	1404	1	100.0	60
02/09/19	6:00 a	38.5	39.3	38.5	51	21.9	10.0	NNW	10.00	22.0	NNW	31.8	37.5	30.8	30.555	0.00	0.00	1.104	0.000	78.3	30	44.3	76.6	1406	1	100.0	60
02/09/19	7:00 a	37.7	38.5	37.7	52	21.6	10.0	NNW	10.00	19.0	NNW	30.8	36.7	29.8	30.573	0.00	0.00	1.137	0.000	78.3	29	43.4	76.6	1405	1	100.0	60
02/09/19	8:00 a	37.1	37.7	37.1	52	21.1	10.0	NNW	10.00	21.0	ENE	30.0	36.1	29.0	30.612	0.00	0.00	1.163	0.000	78.8	29	43.8	77.0	1404	1	100.0	60
02/09/19	9:00 a	37.3	37.3	37.0	48	19.4	12.0	NNW	12.00	23.0	N	29.4	36.3	28.4	30.645	0.00	0.00	1.154	0.000	79.6	28	43.6	77.5	1405	1	100.0	60
02/09/19	10:00 a	37.3	37.6	37.0	46	18.4	13.0	NNW	13.00	24.0	N	29.1	36.2	28.0	30.691	0.00	0.00	1.154	0.000	80.3	26	42.3	77.9	1405	1	100.0	60
02/09/19	11:00 a	37.9	38.2	37.3	40	15.7	13.0	NNW	13.00	26.0	NW	29.8	36.7	28.6	30.690	0.00	0.00	1.129	0.000	80.6	26	42.5	78.2	1405	1	100.0	60
02/09/19	12:00 p	39.1	39.1	37.8	40	16.8	13.0	NNW	13.00	24.0	NNW	31.3	37.8	30.0	30.693	0.00	0.00	1.079	0.000	81.2	25	42.0	78.6	1405	1	100.0	60
02/09/19	1:00 p	39.7	40.0	39.1	41	17.9	13.0	NNW	13.00	24.0	ENE	32.1	38.4	30.8	30.681	0.00	0.00	1.054	0.000	82.3	25	43.0	79.8	1405	1	100.0	60
02/09/19	2:00 p	39.6	39.7	39.4	42	18.4	11.0	NNW	11.00	21.0	NNW	32.7	38.3	31.4	30.677	0.00	0.00	1.058	0.000	82.8	26	44.4	80.3	1405	1	100.0	60
02/09/19	3:00 p	38.8	39.7	38.7	45	19.2	11.0	NE	11.00	20.0	NE	31.7	37.6	30.5	30.675	0.00	0.00	1.092	0.000	84.4	26	45.8	82.0	1405	1	100.0	60
02/09/19	4:00 p	37.7	38.8	37.7	52	21.6	11.0	ENE	11.00	22.0	ENE	30.4	36.7	29.4	30.687	0.00	0.00	1.137	0.000	84.4	25	44.7	81.9	1404	1	100.0	60
02/09/19	5:00 p	37.0	37.7	37.0	50	20.1	10.0	NE	10.00	19.0	ENE	29.9	36.0	28.9	30.684	0.00	0.00	1.167	0.000	83.3	25	43.8	80.7	1405	1	100.0	60
02/09/19	6:00 p	35.6	37.1	35.6	58	22.3	7.0	NE	7.00	16.0	NNW	29.8	34.8	29.0	30.700	0.00	0.00	1.225	0.000	80.9	25	41.8	78.3	1405	1	100.0	60
02/09/19	7:00 p	34.4	35.6	34.4	63	23.1	10.0	NE	10.00	17.0	NE	26.7	33.8	26.1	30.713	0.00	0.00	1.275	0.000	80.0	25	41.0	77.5	1405	1	100.0	60
02/09/19	8:00 p	34.4	34.4	34.3	53	19.0	7.0	NE	7.00	17.0	ENE	28.4	33.6	27.6	30.717	0.00	0.00	1.275	0.000	79.7	25	40.8	77.3	1405	1	100.0	60
02/09/19	9:00 p	34.0	34.4	34.0	52	18.2	6.0	NE	6.00	16.0	NNW	28.6	33.1	27.7	30.721	0.00	0.00	1.292	0.000	79.3	25	40.4	76.9	1405	1	100.0	60
02/09/19	10:00 p	33.4	34.0	33.3	51	17.2	6.0	N	6.00	16.0	NNW	27.9	32.5	27.0	30.731	0.00	0.00	1.317	0.000	78.8	25	40.0	76.6	1405	1	100.0	60
02/09/19	11:00 p	33.0	33.4	33.0	52	17.3	6.0	NE	6.00	16.0	NW	27.4	32.1	26.5	30.729	0.00	0.00	1.333	0.000	78.3	25	39.6	76.3	1405	1	100.0	60
SUNDAY			Temp	Hi	Low	Out	Dew	Wind	Wind	Wind	Hi	Hi	Wind	Heat	THW			Rain	Heat	Cool	In 	In	In 	In 	Wind	Wind	ISS 	Arc.
Date		Time	Out	Temp	Temp	Hum	Pt.	Speed	Dir	Run	Speed	Dir	Chill	Index	Index	Bar  	Rain	Rate	D-D 	D-D 	Temp	Hum	Dew	Heat	Samp	Tx 	Recept	Int.
02/10/19	1:00 a	32.9	32.9	32.6	62	21.3	5.0	NE	5.00	13.0	ENE	28.1	32.2	27.4	30.692	0.00	0.00	1.337	0.000	77.3	25	38.7	75.8	1403	1	100.0	60
02/10/19	2:00 a	32.8	33.0	32.8	64	22.0	5.0	NE	5.00	12.0	NE	28.0	32.2	27.4	30.692	0.00	0.00	1.342	0.000	76.7	25	38.2	75.3	1406	1	100.0	60
02/10/19	3:00 a	32.4	32.8	32.3	66	22.3	5.0	NE	5.00	10.0	ENE	27.5	31.8	26.9	30.700	0.00	0.00	1.358	0.000	77.1	24	37.5	75.7	1404	1	100.0	60
02/10/19	4:00 a	32.0	32.4	32.0	64	21.2	5.0	NE	5.00	10.0	ENE	27.1	31.4	26.5	30.701	0.00	0.00	1.375	0.000	77.1	24	37.5	75.7	1405	1	100.0	60
02/10/19	5:00 a	29.9	32.0	29.9	67	20.3	0.0	ENE	0.00	7.0	ENE	29.9	29.3	29.3	30.707	0.00	0.00	1.463	0.000	76.4	24	36.9	74.8	1405	1	100.0	60
02/10/19	6:00 a	27.5	29.9	27.5	72	19.7	0.0	---	0.00	0.0	---	27.5	27.1	27.1	30.713	0.00	0.00	1.563	0.000	76.8	24	37.3	75.4	1405	1	100.0	60
02/10/19	7:00 a	25.9	27.5	25.9	76	19.4	0.0	---	0.00	0.0	---	25.9	25.5	25.5	30.703	0.00	0.00	1.629	0.000	79.2	24	39.3	76.7	1405	1	100.0	60
02/10/19	8:00 a	26.0	26.0	25.6	81	21.0	0.0	---	0.00	0.0	---	26.0	25.7	25.7	30.702	0.00	0.00	1.625	0.000	81.0	23	39.7	78.2	1405	1	100.0	60
02/10/19	9:00 a	33.6	33.6	26.1	66	23.4	5.0	ENE	5.00	12.0	ENE	29.0	33.0	28.4	30.695	0.00	0.00	1.308	0.000	82.6	23	41.0	79.8	1405	1	100.0	60
02/10/19	10:00 a	36.6	36.6	33.6	58	23.2	6.0	ENE	6.00	14.0	NE	31.7	35.8	30.9	30.684	0.00	0.00	1.183	0.000	83.3	23	41.6	80.6	1405	1	100.0	60
02/10/19	11:00 a	38.8	38.9	36.6	52	22.7	7.0	ENE	7.00	15.0	ENE	33.7	37.8	32.7	30.649	0.00	0.00	1.092	0.000	84.1	23	42.3	81.4	1404	1	100.0	60
02/10/19	12:00 p	41.3	41.3	38.9	51	24.5	5.0	E	5.00	13.0	NNW	38.0	40.2	36.9	30.608	0.00	0.00	0.988	0.000	84.7	23	42.8	81.9	1405	1	100.0	60
02/10/19	1:00 p	43.3	43.3	41.3	50	25.9	6.0	E	6.00	14.0	NNW	39.7	42.2	38.6	30.572	0.00	0.00	0.904	0.000	84.6	23	42.7	81.8	1405	1	100.0	60
02/10/19	2:00 p	44.2	44.2	43.3	49	26.2	6.0	NNW	6.00	14.0	N	40.7	43.1	39.6	30.531	0.00	0.00	0.867	0.000	84.4	23	42.5	81.6	1405	1	100.0	60
02/10/19	3:00 p	44.6	45.0	44.2	51	27.6	6.0	NNW	6.00	14.0	NNW	41.2	43.5	40.1	30.522	0.00	0.00	0.850	0.000	84.6	23	42.7	81.8	1405	1	100.0	60
02/10/19	4:00 p	42.3	44.6	42.3	57	28.1	7.0	NNW	7.00	14.0	NNW	37.9	41.4	37.0	30.510	0.00	0.00	0.946	0.000	85.0	23	43.0	82.2	1405	1	100.0	60
02/10/19	5:00 p	41.4	42.2	41.4	56	26.9	6.0	ENE	6.00	14.0	NE	37.4	40.4	36.4	30.480	0.00	0.00	0.983	0.000	85.2	23	43.2	82.4	1405	1	100.0	60
02/10/19	6:00 p	41.0	41.4	41.0	59	27.8	6.0	ENE	6.00	13.0	ENE	36.9	40.2	36.1	30.431	0.00	0.00	1.000	0.000	82.9	24	42.4	80.2	1405	1	100.0	60
02/10/19	7:00 p	40.5	41.0	40.5	66	30.0	5.0	SE	5.00	12.0	SSE	37.1	39.8	36.4	30.452	0.00	0.00	1.021	0.000	81.1	24	40.9	78.4	1405	1	100.0	60
02/10/19	8:00 p	40.3	40.5	40.3	70	31.3	4.0	ESE	4.00	11.0	SSE	37.7	39.7	37.1	30.420	0.00	0.00	1.029	0.000	80.4	24	40.3	77.8	1405	1	100.0	60
02/10/19	9:00 p	40.7	40.7	40.3	73	32.7	4.0	ESE	4.00	10.0	SSE	38.1	40.2	37.6	30.405	0.00	0.00	1.012	0.000	79.9	24	39.9	77.3	1404	1	100.0	60
02/10/19	10:00 p	41.3	41.3	40.7	74	33.6	0.0	SE	0.00	7.0	SE	41.3	40.9	40.9	30.379	0.00	0.00	0.988	0.000	79.6	24	39.6	77.1	1405	1	100.0	60
02/10/19	11:00 p	41.2	41.4	41.2	81	35.8	4.0	N	4.00	7.0	ENE	38.7	40.9	38.4	30.363	0.00	0.00	0.992	0.000	81.6	24	41.3	78.9	1405	1	100.0	60
02/11/19	12:00 a	39.1	41.2	39.1	91	36.7	5.0	NNW	5.00	10.0	WNW	35.4	39.0	35.3	30.329	0.01	0.00	1.079	0.000	81.9	24	41.6	79.3	1405	1	100.0	60
SUNDAY			Temp	Hi	Low	Out	Dew	Wind	Wind	Wind	Hi	Hi	Wind	Heat	THW			Rain	Heat	Cool	In 	In	In 	In 	Wind	Wind	ISS 	Arc.
Date		Time	Out	Temp	Temp	Hum	Pt.	Speed	Dir	Run	Speed	Dir	Chill	Index	Index	Bar  	Rain	Rate	D-D 	D-D 	Temp	Hum	Dew	Heat	Samp	Tx 	Recept	Int.
02/11/19	1:00 a	38.8	39.1	38.7	94	37.2	5.0	NE	5.00	12.0	NW	35.1	38.8	35.1	30.309	0.01	0.00	1.092	0.000	82.6	24	42.1	79.9	1404	1	100.0	60
02/11/19	2:00 a	39.1	39.1	38.8	96	38.1	4.0	NNW	4.00	10.0	NNW	36.3	39.1	36.3	30.288	0.03	0.06	1.079	0.000	82.4	24	42.0	79.8	1405	1	100.0	60
02/11/19	3:00 a	38.8	39.1	38.8	96	37.8	5.0	NNW	5.00	13.0	NNW	35.1	38.8	35.1	30.270	0.02	0.05	1.092	0.000	82.0	24	41.6	79.4	1405	1	100.0	60
02/11/19	4:00 a	38.1	38.8	38.1	97	37.3	6.0	NNW	6.00	14.0	N	33.5	38.1	33.5	30.249	0.06	0.08	1.121	0.000	82.7	24	42.2	80.0	1405	1	100.0	60
02/11/19	5:00 a	38.0	38.2	37.9	97	37.2	5.0	NNW	5.00	13.0	NNW	34.1	38.0	34.1	30.238	0.05	0.06	1.125	0.000	82.4	25	43.0	79.9	1405	1	100.0	60
02/11/19	6:00 a	38.2	38.2	38.0	97	37.4	4.0	SE	4.00	10.0	S	35.2	38.2	35.2	30.223	0.05	0.07	1.117	0.000	81.9	25	42.6	79.4	1404	1	100.0	60
02/11/19	7:00 a	39.8	38.5	5.0	SE	5.00	11.0	S	35.3	39.1	35.4	30.218	0.03	0.04	1.083	0.000	79.9	26	41.9	77.5	1405	1	100.0	60
02/11/19	8:00 a	39.5	39.5	39.0	98	39.0	0.0	SSE	0.00	7.0	SSE	39.5	39.6	39.6	30.237	0.05	16.00	1.063	0.000	79.8	26	41.9	77.4	1405	1	100.0	60
02/11/19	9:00 a	39.8	39.8	39.5	98	39.3	0.0	NW	0.00	6.0	SSE	39.8	40.0	40.0	30.247	0.03	0.12	1.050	0.000	80.1	26	42.1	77.7	1405	1	100.0	60
02/11/19	10:00 a	40.7	40.7	39.8	98	40.2	4.0	NW	4.00	6.0	NW	38.1	40.9	38.3	30.237	0.03	0.12	1.012	0.000	81.3	25	42.1	78.7	1405	1	100.0	60
02/11/19	11:00 a	41.5	41.5	40.7	98	41.0	4.0	E	4.00	6.0	E	39.1	41.7	39.3	30.220	0.02	0.00	0.979	0.000	79.7	26	41.8	77.4	1405	1	100.0	60
02/11/19	12:00 p	42.1	42.1	41.5	98	41.6	4.0	E	4.00	7.0	E	39.7	42.3	39.9	30.219	0.04	0.08	0.954	0.000	79.7	26	41.8	77.4	1405	1	100.0	60
02/11/19	1:00 p	42.7	42.7	42.2	98	42.2	4.0	ENE	4.00	7.0	NE	40.4	42.9	40.6	30.199	0.05	0.12	0.929	0.000	79.7	26	41.8	77.4	1405	1	100.0	60
02/11/19	2:00 p	42.4	42.8	42.4	98	41.9	6.0	ENE	6.00	14.0	ENE	38.6	42.6	38.8	30.184	0.05	0.05	0.942	0.000	79.7	26	41.8	77.4	1405	1	100.0	60
02/11/19	3:00 p	42.2	42.5	42.2	97	41.4	7.0	NE	7.00	16.0	NE	37.8	42.3	37.9	30.172	0.00	0.00	0.950	0.000	79.8	26	41.9	77.4	1405	1	100.0	60
02/11/19	4:00 p	41.8	42.2	41.7	97	41.0	7.0	ENE	7.00	15.0	NE	37.3	41.9	37.4	30.199	0.00	0.00	0.967	0.000	79.6	26	41.7	77.3	1405	1	100.0	60
02/11/19	5:00 p	41.6	41.9	41.5	97	40.8	10.0	ENE	10.00	18.0	NE	35.5	41.7	35.6	30.193	0.00	0.00	0.975	0.000	79.2	26	41.3	77.0	1405	1	100.0	60
02/11/19	6:00 p	41.6	41.6	41.5	96	40.5	10.0	ENE	10.00	16.0	NE	35.5	41.7	35.6	30.195	0.00	0.00	0.975	0.000	78.9	26	41.1	76.7	1404	1	100.0	60
02/11/19	7:00 p	41.8	41.9	41.6	97	41.0	10.0	ENE	10.00	20.0	E	35.8	41.9	35.9	30.197	0.00	0.00	0.967	0.000	81.0	26	42.9	78.5	1405	1	100.0	60
02/11/19	8:00 p	42.0	42.1	41.8	97	41.2	7.0	ENE	7.00	20.0	ENE	37.5	42.1	37.6	30.230	0.00	0.00	0.958	0.000	81.4	26	43.2	79.0	1405	1	100.0	60
02/11/19	9:00 p	42.4	42.4	42.0	96	41.3	10.0	ENE	10.00	18.0	E	36.4	42.5	36.5	30.204	0.00	0.00	0.942	0.000	82.2	26	43.9	79.8	1405	1	100.0	60
02/11/19	10:00 p	42.1	42.4	42.1	96	41.0	11.0	ENE	11.00	20.0	ENE	35.6	42.2	35.7	30.215	0.00	0.00	0.954	0.000	81.9	26	43.6	79.5	1405	1	100.0	60
02/11/19	11:00 p	41.6	42.2	41.6	96	40.5	10.0	ENE	10.00	17.0	WNW	35.5	41.7	35.6	30.222	0.01	0.00	0.975	0.000	81.4	26	43.2	79.0	1405	1	100.0	60
02/12/19	12:00 a	41.0	41.6	41.0	97	40.2	10.0	NE	10.00	18.0	NE	34.8	41.1	34.9	30.201	0.00	0.00	1.000	0.000	81.0	26	42.9	78.5	1405	1	100.0	60
MONDAY			Temp	Hi	Low	Out	Dew	Wind	Wind	Wind	Hi	Hi	Wind	Heat	THW			Rain	Heat	Cool	In 	In	In 	In 	Wind	Wind	ISS 	Arc.
Date		Time	Out	Temp	Temp	Hum	Pt.	Speed	Dir	Run	Speed	Dir	Chill	Index	Index	Bar  	Rain	Rate	D-D 	D-D 	Temp	Hum	Dew	Heat	Samp	Tx 	Recept	Int.
02/12/19	1:00 a	41.3	41.3	40.9	98	40.8	10.0	NE	10.00	18.0	NE	35.2	41.5	35.4	30.192	0.00	0.00	0.988	0.000	80.7	26	42.6	78.2	1404	1	100.0	60
02/12/19	2:00 a	41.7	41.8	41.3	98	41.2	10.0	NE	10.00	17.0	NE	35.6	41.9	35.8	30.176	0.00	0.00	0.971	0.000	80.8	26	42.7	78.3	1405	1	100.0	60
02/12/19	3:00 a	42.3	42.3	41.7	99	42.0	7.0	NE	7.00	17.0	NE	37.9	42.5	38.1	30.175	0.00	0.00	0.946	0.000	81.3	26	43.1	78.9	1404	1	100.0	60
02/12/19	4:00 a	42.7	42.7	42.3	99	42.4	6.0	NE	6.00	17.0	NE	38.9	42.9	39.1	30.145	0.00	0.00	0.929	0.000	81.2	26	43.0	78.7	1405	1	100.0	60
02/12/19	5:00 a	43.9	43.9	42.7	99	43.6	7.0	NE	7.00	15.0	E	39.9	44.3	40.3	30.141	0.01	0.00	0.879	0.000	80.8	26	42.7	78.3	1405	1	100.0	60
02/12/19	6:00 a	44.6	44.7	43.9	99	44.3	7.0	NE	7.00	15.0	NE	40.7	45.0	41.1	30.121	0.02	0.00	0.850	0.000	80.4	27	43.3	78.1	1405	1	100.0	60
02/12/19	7:00 a	45.3	45.3	44.7	100	45.3	6.0	ENE	6.00	15.0	NE	42.1	45.7	42.5	30.100	0.01	0.00	0.821	0.000	79.3	27	42.4	77.1	1405	1	100.0	60
02/12/19	8:00 a	46.3	46.3	45.3	100	46.3	5.0	ENE	5.00	11.0	NE	43.9	46.7	44.3	30.085	0.00	0.00	0.779	0.000	79.2	28	43.3	77.2	1405	1	100.0	60
02/12/19	9:00 a	47.4	47.4	46.2	100	47.4	4.0	N	4.00	7.0	ENE	45.9	47.9	46.4	30.085	0.00	0.00	0.733	0.000	79.5	28	43.5	77.4	1405	1	100.0	60
02/12/19	10:00 a	47.4	47.5	47.3	100	47.4	5.0	NW	5.00	10.0	NNW	45.2	47.9	45.7	30.062	0.00	0.00	0.733	0.000	80.1	29	45.0	78.0	1405	1	100.0	60
02/12/19	11:00 a	47.9	47.9	47.2	100	47.9	5.0	NW	5.00	13.0	NW	45.8	48.5	46.4	30.041	0.00	0.00	0.712	0.000	80.4	28	44.3	78.2	1405	1	100.0	60
02/12/19	12:00 p	49.4	49.4	47.9	100	49.4	4.0	NNE	4.00	7.0	NW	48.2	50.0	48.8	30.002	0.00	0.00	0.650	0.000	79.7	30	45.5	77.8	1405	1	100.0	60
02/12/19	1:00 p	50.7	50.7	49.4	100	50.7	4.0	WNW	4.00	7.0	NW	49.7	51.3	50.3	29.964	0.00	0.00	0.596	0.000	80.3	30	46.0	78.3	1405	1	100.0	60
02/12/19	2:00 p	55.2	55.2	50.7	100	55.2	5.0	SSE	5.00	10.0	SSE	54.3	55.6	54.7	29.913	0.00	0.00	0.408	0.000	80.8	30	46.5	78.8	1405	1	100.0	60
02/12/19	3:00 p	57.8	57.8	55.2	100	57.8	6.0	S	6.00	13.0	SSE	57.0	58.2	57.4	29.881	0.00	0.00	0.300	0.000	80.8	30	46.5	78.8	1404	1	100.0	60
02/12/19	4:00 p	59.2	59.3	57.8	100	59.2	7.0	S	7.00	16.0	SSE	58.2	59.7	58.7	29.849	0.00	0.00	0.242	0.000	80.5	30	46.2	78.5	1406	1	100.0	60
02/12/19	5:00 p	60.2	60.2	59.2	99	59.9	7.0	S	7.00	15.0	SSW	59.4	60.8	60.0	29.819	0.00	0.00	0.200	0.000	81.3	30	46.9	79.3	1404	1	100.0	60
02/12/19	6:00 p	60.2	60.4	60.1	99	59.9	7.0	S	7.00	15.0	SE	59.4	60.8	60.0	29.809	0.00	0.00	0.200	0.000	80.9	31	47.4	79.0	1405	1	100.0	60
02/12/19	7:00 p	60.1	60.2	60.1	99	59.8	4.0	SW	4.00	12.0	SE	60.1	60.7	60.7	29.782	0.00	0.00	0.204	0.000	81.5	31	47.9	79.7	1405	1	100.0	60
02/12/19	8:00 p	59.6	60.1	59.5	99	59.3	7.0	SSE	7.00	14.0	S	58.7	60.1	59.2	29.735	0.00	0.00	0.225	0.000	81.0	32	48.4	79.2	1405	1	100.0	60
02/12/19	9:00 p	63.0	63.0	59.6	100	63.0	7.0	S	7.00	18.0	SSW	62.9	64.0	63.9	29.715	0.00	0.00	0.083	0.000	81.1	32	48.4	79.3	1405	1	100.0	60
02/12/19	10:00 p	60.1	64.1	60.1	90	57.2	7.0	SSW	7.00	19.0	WNW	59.3	60.4	59.6	29.718	0.00	0.00	0.204	0.000	80.9	32	48.3	79.1	1405	1	100.0	60
02/12/19	11:00 p	47.3	60.0	47.3	96	46.2	12.0	WNW	12.00	29.0	NW	41.2	47.7	41.6	29.724	0.00	0.00	0.738	0.000	81.0	32	48.4	79.2	1405	1	100.0	60
02/13/19	12:00 a	47.5	47.5	47.2	98	47.0	4.0	WSW	4.00	6.0	W	46.0	48.0	46.5	29.701	0.01	0.00	0.729	0.000	81.3	32	48.6	79.5	1405	1	100.0	60
WEDNESDAY		Temp	Hi	Low	Out	Dew	Wind	Wind	Wind	Hi	Hi	Wind	Heat	THW			Rain	Heat	Cool	In 	In	In 	In 	Wind	Wind	ISS 	Arc.
Date		Time	Out	Temp	Temp	Hum	Pt.	Speed	Dir	Run	Speed	Dir	Chill	Index	Index	Bar  	Rain	Rate	D-D 	D-D 	Temp	Hum	Dew	Heat	Samp	Tx 	Recept	Int.
02/13/19	1:00 a	48.3	48.3	47.5	98	47.8	5.0	SSW	5.00	10.0	SSE	46.2	48.8	46.7	29.672	0.00	0.00	0.696	0.000	81.5	32	48.8	79.8	1404	1	100.0	60
02/13/19	2:00 a	48.7	48.9	48.3	98	48.2	6.0	SW	6.00	18.0	W	46.1	49.2	46.6	29.716	0.00	0.00	0.679	0.000	81.5	32	48.8	79.8	1404	1	100.0	60
02/13/19	3:00 a	49.2	49.2	48.7	99	48.9	6.0	SW	6.00	18.0	SSW	46.7	49.8	47.3	29.721	0.01	0.00	0.658	0.000	81.4	32	48.7	79.7	1405	1	100.0	60
02/13/19	4:00 a	49.7	49.7	49.2	99	49.4	7.0	SW	7.00	23.0	W	46.8	50.3	47.4	29.741	0.00	0.00	0.637	0.000	81.4	31	47.9	79.5	1405	1	100.0	60
02/13/19	5:00 a	48.9	49.7	48.9	97	48.1	7.0	WSW	7.00	21.0	SW	45.9	49.4	46.4	29.756	0.00	0.00	0.671	0.000	81.2	31	47.7	79.3	1405	1	100.0	60
02/13/19	6:00 a	47.9	48.9	47.8	91	45.4	11.0	W	11.00	27.0	WSW	42.4	48.1	42.6	29.809	0.00	0.00	0.712	0.000	81.0	31	47.5	79.1	1405	1	100.0	60
02/13/19	7:00 a	46.5	47.8	46.5	80	40.7	12.0	W	12.00	24.0	W	40.3	46.3	40.1	29.822	0.00	0.00	0.771	0.000	79.6	31	46.3	77.8	1405	1	100.0	60
02/13/19	8:00 a	45.6	46.5	45.6	71	36.7	11.0	W	11.00	22.0	W	39.7	45.1	39.2	29.849	0.00	0.00	0.808	0.000	80.1	30	45.9	78.1	1405	1	100.0	60
02/13/19	9:00 a	46.0	46.0	45.3	61	33.3	11.0	W	11.00	24.0	WNW	40.2	45.2	39.4	29.882	0.00	0.00	0.792	0.000	80.0	31	46.6	78.1	1405	1	100.0	60
02/13/19	10:00 a	49.0	49.0	46.0	48	30.1	13.0	W	13.00	29.0	WNW	42.7	47.8	41.5	29.883	0.00	0.00	0.667	0.000	81.5	29	46.2	79.4	1405	1	100.0	60
02/13/19	11:00 a	50.2	50.2	49.0	42	28.0	14.0	W	14.00	33.0	WSW	43.7	48.7	42.2	29.866	0.00	0.00	0.617	0.000	81.7	29	46.3	79.6	1405	1	100.0	60
02/13/19	12:00 p	52.3	52.3	50.2	39	28.1	14.0	W	14.00	31.0	W	46.1	50.3	44.1	29.854	0.00	0.00	0.529	0.000	82.9	28	46.4	80.7	1405	1	100.0	60
02/13/19	1:00 p	52.9	52.9	52.2	37	27.3	13.0	WSW	13.00	32.0	W	47.2	50.7	45.0	29.835	0.00	0.00	0.504	0.000	82.8	28	46.4	80.6	1405	1	100.0	60
02/13/19	2:00 p	54.4	54.4	52.9	38	29.3	14.0	WSW	14.00	31.0	SW	48.5	52.0	46.1	29.822	0.00	0.00	0.442	0.000	82.8	28	46.4	80.6	1404	1	100.0	60
02/13/19	3:00 p	54.3	54.8	54.2	34	26.5	13.0	W	13.00	29.0	W	48.8	51.7	46.2	29.832	0.00	0.00	0.446	0.000	83.9	28	47.3	81.9	1405	1	100.0	60
02/13/19	4:00 p	54.1	54.3	54.1	32	24.9	13.0	W	13.00	32.0	W	48.5	51.4	45.8	29.840	0.00	0.00	0.454	0.000	84.2	28	47.6	82.2	1405	1	100.0	60
02/13/19	5:00 p	53.3	54.1	53.3	34	25.6	13.0	W	13.00	29.0	W	47.6	50.9	45.2	29.864	0.00	0.00	0.488	0.000	83.7	27	46.2	81.5	1405	1	100.0	60
02/13/19	6:00 p	51.4	53.3	51.4	38	26.6	7.0	WSW	7.00	24.0	SW	48.9	49.5	47.0	29.896	0.00	0.00	0.567	0.000	82.4	28	46.0	80.2	1405	1	100.0	60
02/13/19	7:00 p	48.9	51.3	48.9	43	27.4	5.0	SW	5.00	13.0	WSW	46.9	47.5	45.5	29.928	0.00	0.00	0.671	0.000	82.1	28	45.8	79.9	1405	1	100.0	60
02/13/19	8:00 p	45.8	48.9	45.8	49	27.7	0.0	SW	0.00	6.0	SW	45.8	44.7	44.7	29.945	0.00	0.00	0.800	0.000	81.5	28	45.2	79.3	1405	1	100.0	60
02/13/19	9:00 p	43.5	45.8	43.5	54	27.9	4.0	SW	4.00	7.0	SW	41.3	42.5	40.3	29.967	0.00	0.00	0.896	0.000	80.9	28	44.7	78.7	1405	1	100.0	60
02/13/19	10:00 p	41.8	43.5	41.8	58	28.1	4.0	SW	4.00	6.0	SW	39.4	40.9	38.5	29.992	0.00	0.00	0.967	0.000	80.3	28	44.2	78.1	1405	1	100.0	60
02/13/19	11:00 p	40.1	41.8	40.1	61	27.7	4.0	SW	4.00	10.0	SW	37.4	39.3	36.6	30.008	0.00	0.00	1.038	0.000	79.7	28	43.7	77.6	1405	1	100.0	60
02/14/19	12:00 a	39.7	40.1	39.7	62	27.7	4.0	SW	4.00	7.0	SW	37.0	38.9	36.2	30.007	0.00	0.00	1.054	0.000	79.1	28	43.2	77.1	1405	1	100.0	60
THURSDAY		Temp	Hi	Low	Out	Dew	Wind	Wind	Wind	Hi	Hi	Wind	Heat	THW			Rain	Heat	Cool	In 	In	In 	In 	Wind	Wind	ISS 	Arc.
Date		Time	Out	Temp	Temp	Hum	Pt.	Speed	Dir	Run	Speed	Dir	Chill	Index	Index	Bar  	Rain	Rate	D-D 	D-D 	Temp	Hum	Dew	Heat	Samp	Tx 	Recept	Int.
02/14/19	1:00 a	38.5	39.7	38.5	63	27.0	4.0	SW	4.00	11.0	W	35.6	37.8	34.9	30.032	0.00	0.00	1.104	0.000	78.7	28	42.8	76.8	1403	1	100.0	60
02/14/19	2:00 a	40.1	40.2	38.5	59	26.9	5.0	WSW	5.00	13.0	WSW	36.6	39.3	35.8	30.058	0.00	0.00	1.038	0.000	78.2	28	42.4	76.5	1405	1	100.0	60
02/14/19	3:00 a	39.4	40.1	39.3	60	26.7	5.0	WSW	5.00	12.0	W	35.8	38.6	35.0	30.073	0.00	0.00	1.067	0.000	77.8	28	42.1	76.2	1405	1	100.0	60
02/14/19	4:00 a	39.2	39.5	39.1	60	26.5	5.0	W	5.00	12.0	W	35.5	38.4	34.7	30.066	0.00	0.00	1.075	0.000	77.5	27	40.9	76.0	1405	1	100.0	60
02/14/19	5:00 a	38.1	39.2	38.1	62	26.2	4.0	WSW	4.00	13.0	WNW	35.1	37.3	34.3	30.091	0.00	0.00	1.121	0.000	77.9	27	41.2	76.2	1405	1	100.0	60
02/14/19	6:00 a	36.6	38.1	36.6	65	25.9	4.0	WNW	4.00	7.0	W	33.4	35.9	32.7	30.092	0.00	0.00	1.183	0.000	77.9	27	41.2	76.2	1405	1	100.0	60
02/14/19	7:00 a	33.8	36.6	33.8	72	25.7	0.0	WNW	0.00	5.0	WNW	33.8	33.3	33.3	30.112	0.00	0.00	1.300	0.000	77.3	27	40.7	75.9	1405	1	100.0	60
02/14/19	8:00 a	32.8	33.9	32.5	79	27.0	0.0	W	0.00	7.0	WSW	32.8	32.5	32.5	30.133	0.00	0.00	1.342	0.000	77.3	27	40.7	75.9	1405	1	100.0	60
02/14/19	9:00 a	39.6	39.6	32.8	63	28.0	4.0	W	4.00	13.0	NW	36.9	38.9	36.2	30.144	0.00	0.00	1.058	0.000	79.2	26	41.3	77.0	1405	1	100.0	60
02/14/19	10:00 a	46.6	46.6	39.6	46	26.9	6.0	NW	6.00	14.0	NW	43.6	45.3	42.3	30.133	0.00	0.00	0.767	0.000	80.6	26	42.5	78.2	1405	1	100.0	60
02/14/19	11:00 a	49.6	49.7	46.6	42	27.4	6.0	NNW	6.00	14.0	NNW	47.2	48.2	45.8	30.136	0.00	0.00	0.642	0.000	81.6	26	43.4	79.2	1404	1	100.0	60
02/14/19	12:00 p	51.9	51.9	49.7	41	28.9	5.0	E	5.00	12.0	ENE	50.5	50.1	48.7	30.129	0.00	0.00	0.546	0.000	83.0	26	44.6	80.5	1406	1	100.0	60
02/14/19	1:00 p	54.8	54.8	51.9	39	30.3	6.0	S	6.00	13.0	SSE	53.4	52.5	51.1	30.094	0.00	0.00	0.425	0.000	83.7	26	45.2	81.3	1404	1	100.0	60
02/14/19	2:00 p	57.5	57.5	54.8	35	30.0	6.0	SSE	6.00	15.0	SW	56.6	54.5	53.6	30.088	0.00	0.00	0.313	0.000	83.4	27	45.9	81.1	1405	1	100.0	60
02/14/19	3:00 p	58.7	58.7	57.5	34	30.4	5.0	SSE	5.00	12.0	S	58.4	55.6	55.3	30.070	0.00	0.00	0.262	0.000	86.8	25	46.8	84.1	1405	1	100.0	60
02/14/19	4:00 p	58.6	59.4	58.6	39	33.7	7.0	ENE	7.00	12.0	ENE	57.5	55.9	54.8	30.057	0.00	0.00	0.267	0.000	86.3	25	46.3	83.7	1405	1	100.0	60
02/14/19	5:00 p	55.9	58.6	55.9	45	34.8	10.0	SE	10.00	19.0	SSE	52.2	53.7	50.0	30.057	0.00	0.00	0.379	0.000	84.6	28	47.9	82.5	1405	1	100.0	60
02/14/19	6:00 p	50.8	55.9	50.8	53	34.3	12.0	SSE	12.00	20.0	SSE	45.2	49.6	44.0	30.060	0.00	0.00	0.592	0.000	83.8	29	48.1	81.9	1405	1	100.0	60
02/14/19	7:00 p	48.1	50.8	48.1	56	33.1	12.0	SSE	12.00	22.0	SSE	42.1	47.1	41.1	30.063	0.00	0.00	0.704	0.000	83.2	27	45.7	80.9	1405	1	100.0	60
02/14/19	8:00 p	47.5	48.1	47.4	61	34.7	13.0	SSE	13.00	22.0	SSE	41.1	46.7	40.3	30.035	0.00	0.00	0.729	0.000	83.6	26	45.1	81.2	1405	1	100.0	60
02/14/19	9:00 p	47.6	47.6	47.4	62	35.2	11.0	S	11.00	19.0	S	42.0	46.8	41.2	30.031	0.00	0.00	0.725	0.000	83.8	26	45.3	81.4	1405	1	100.0	60
02/14/19	10:00 p	47.9	47.9	47.5	58	33.8	11.0	S	11.00	21.0	S	42.4	47.0	41.5	30.012	0.00	0.00	0.712	0.000	83.2	26	44.7	80.7	1405	1	100.0	60
02/14/19	11:00 p	49.2	49.2	47.9	62	36.7	13.0	S	13.00	29.0	SSE	42.9	48.5	42.2	29.979	0.00	0.00	0.658	0.000	82.3	26	44.0	79.9	1405	1	100.0	60
FRIDAY			Temp	Hi	Low	Out	Dew	Wind	Wind	Wind	Hi	Hi	Wind	Heat	THW			Rain	Heat	Cool	In 	In	In 	In 	Wind	Wind	ISS 	Arc.
Date		Time	Out	Temp	Temp	Hum	Pt.	Speed	Dir	Run	Speed	Dir	Chill	Index	Index	Bar  	Rain	Rate	D-D 	D-D 	Temp	Hum	Dew	Heat	Samp	Tx 	Recept	Int.
02/15/19	1:00 a	49.6	50.3	49.6	72	40.9	7.0	SSW	7.00	20.0	SSE	46.7	49.3	46.4	29.969	0.00	0.00	0.642	0.000	80.2	27	43.2	77.9	1403	1	100.0	60
02/15/19	2:00 a	50.0	50.0	49.4	75	42.4	6.0	SSW	6.00	16.0	S	47.7	49.8	47.5	29.950	0.00	0.00	0.625	0.000	79.2	27	42.3	77.1	1405	1	100.0	60
02/15/19	3:00 a	50.2	50.2	50.0	77	43.3	6.0	SSW	6.00	18.0	S	47.9	50.1	47.8	29.937	0.00	0.00	0.617	0.000	79.2	27	42.3	77.1	1405	1	100.0	60
02/15/19	4:00 a	50.5	50.6	50.2	79	44.2	6.0	SSW	6.00	14.0	WSW	48.3	50.4	48.2	29.936	0.00	0.00	0.604	0.000	79.3	28	43.4	77.2	1405	1	100.0	60
02/15/19	5:00 a	51.9	51.9	50.6	80	45.9	5.0	SSW	5.00	14.0	SSW	50.5	51.7	50.3	29.927	0.00	0.00	0.546	0.000	79.4	28	43.4	77.3	1405	1	100.0	60
02/15/19	6:00 a	52.6	52.6	51.9	81	46.9	7.0	S	7.00	15.0	S	50.3	52.4	50.1	29.895	0.00	0.00	0.517	0.000	78.7	28	42.8	76.8	1405	1	100.0	60
02/15/19	7:00 a	53.7	53.7	52.6	81	48.0	7.0	S	7.00	17.0	S	51.6	53.4	51.3	29.892	0.00	0.00	0.471	0.000	79.1	28	43.2	77.1	1405	1	100.0	60
02/15/19	8:00 a	54.5	54.5	53.7	82	49.1	7.0	S	7.00	16.0	S	52.6	54.3	52.4	29.904	0.00	0.00	0.438	0.000	79.6	29	44.5	77.6	1405	1	100.0	60
02/15/19	9:00 a	57.4	57.4	54.5	81	51.6	7.0	S	7.00	15.0	SSE	56.1	57.2	55.9	29.901	0.00	0.00	0.317	0.000	80.3	29	45.1	78.2	1405	1	100.0	60
02/15/19	10:00 a	61.5	61.5	57.4	64	49.2	11.0	SSW	11.00	25.0	SSW	58.1	60.7	57.3	29.890	0.00	0.00	0.146	0.000	80.8	29	45.6	78.7	1404	1	100.0	60
02/15/19	11:00 a	64.2	64.2	61.5	50	45.2	12.0	SW	12.00	24.0	W	60.5	62.4	58.7	29.857	0.00	0.00	0.033	0.000	82.1	29	46.7	80.1	1405	1	100.0	60
02/15/19	12:00 p	66.9	66.9	64.2	40	41.8	13.0	SW	13.00	31.0	WSW	63.2	64.4	60.7	29.814	0.00	0.00	0.000	0.079	83.1	29	47.5	81.0	1405	1	100.0	60
02/15/19	1:00 p	69.6	69.6	66.9	35	40.7	13.0	SW	13.00	30.0	SW	66.1	66.5	63.0	29.771	0.00	0.00	0.000	0.192	83.6	28	47.0	81.5	1405	1	100.0	60
02/15/19	2:00 p	70.8	70.8	69.6	31	38.7	13.0	SW	13.00	29.0	SW	67.3	67.5	64.0	29.737	0.00	0.00	0.000	0.242	84.1	28	47.5	82.1	1405	1	100.0	60
02/15/19	3:00 p	71.6	71.6	70.8	26	34.9	13.0	SSW	13.00	28.0	S	68.2	68.2	64.8	29.715	0.00	0.00	0.000	0.275	85.4	27	47.6	83.1	1405	1	100.0	60
02/15/19	4:00 p	70.8	71.7	70.8	28	36.1	13.0	SSW	13.00	30.0	SW	67.3	67.3	63.8	29.710	0.00	0.00	0.000	0.242	85.3	27	47.5	83.0	1405	1	100.0	60
02/15/19	5:00 p	68.9	70.7	68.9	41	44.2	12.0	SW	12.00	27.0	SW	65.8	66.6	63.5	29.718	0.00	0.00	0.000	0.163	84.6	28	47.9	82.5	1405	1	100.0	60
02/15/19	6:00 p	66.8	68.9	66.8	53	49.1	10.0	SW	10.00	22.0	SW	64.8	65.7	63.7	29.725	0.00	0.00	0.000	0.075	83.7	28	47.1	81.6	1405	1	100.0	60
02/15/19	7:00 p	65.0	66.8	65.0	59	50.3	6.0	SW	6.00	16.0	SW	65.0	64.1	64.1	29.737	0.00	0.00	0.000	0.000	84.0	28	47.4	82.0	1405	1	100.0	60
02/15/19	8:00 p	64.4	65.0	64.4	63	51.5	6.0	SW	6.00	18.0	WSW	64.4	63.8	63.8	29.741	0.00	0.00	0.025	0.000	83.2	28	46.7	81.0	1405	1	100.0	60
02/15/19	9:00 p	63.8	64.4	63.8	66	52.2	6.0	SW	6.00	17.0	SW	63.8	63.3	63.3	29.738	0.00	0.00	0.050	0.000	83.1	29	47.5	81.0	1405	1	100.0	60
02/15/19	10:00 p	63.2	63.8	63.2	68	52.5	5.0	SW	5.00	15.0	SW	63.2	62.8	62.8	29.748	0.00	0.00	0.075	0.000	82.8	29	47.3	80.7	1405	1	100.0	60
02/15/19	11:00 p	62.3	63.2	62.3	69	52.0	5.0	SW	5.00	11.0	WSW	62.3	61.8	61.8	29.751	0.00	0.00	0.113	0.000	82.1	29	46.7	80.1	1405	1	100.0	60
02/16/19	12:00 a	61.1	62.3	61.1	71	51.6	4.0	SW	4.00	10.0	SW	61.1	60.6	60.6	29.749	0.00	0.00	0.163	0.000	82.5	29	47.0	80.4	1405	1	100.0	60
SATURDAY		Temp	Hi	Low	Out	Dew	Wind	Wind	Wind	Hi	Hi	Wind	Heat	THW			Rain	Heat	Cool	In 	In	In 	In 	Wind	Wind	ISS 	Arc.
Date		Time	Out	Temp	Temp	Hum	Pt.	Speed	Dir	Run	Speed	Dir	Chill	Index	Index	Bar  	Rain	Rate	D-D 	D-D 	Temp	Hum	Dew	Heat	Samp	Tx 	Recept	Int.
02/16/19	1:00 a	59.8	61.1	59.8	74	51.5	4.0	SW	4.00	10.0	SW	59.8	59.3	59.3	29.741	0.00	0.00	0.217	0.000	81.8	29	46.4	79.8	1402	1	100.0	60
02/16/19	2:00 a	59.0	59.8	59.0	77	51.8	4.0	SW	4.00	10.0	SW	59.0	58.6	58.6	29.746	0.00	0.00	0.250	0.000	81.0	30	46.6	79.0	1405	1	100.0	60
02/16/19	3:00 a	58.8	59.0	58.6	80	52.6	4.0	SW	4.00	12.0	W	58.8	58.6	58.6	29.749	0.00	0.00	0.258	0.000	80.4	30	46.1	78.4	1405	1	100.0	60
02/16/19	4:00 a	58.7	58.9	58.7	80	52.5	4.0	W	4.00	11.0	W	58.7	58.5	58.5	29.739	0.00	0.00	0.262	0.000	79.9	30	45.7	77.9	1405	1	100.0	60
02/16/19	5:00 a	52.6	58.7	52.6	40	28.9	11.0	NE	11.00	25.0	NNE	47.8	50.6	45.8	29.772	0.00	0.00	0.517	0.000	79.3	30	45.2	77.4	1405	1	100.0	60
02/16/19	6:00 a	50.3	52.6	50.3	40	26.9	13.0	NE	13.00	25.0	NE	44.2	48.7	42.6	29.783	0.00	0.00	0.613	0.000	79.2	29	44.2	77.3	1405	1	100.0	60
02/16/19	7:00 a	48.7	50.3	48.7	48	29.9	13.0	NE	13.00	24.0	ENE	42.4	47.5	41.2	29.809	0.00	0.00	0.679	0.000	79.2	29	44.2	77.3	1405	1	100.0	60
02/16/19	8:00 a	47.4	48.7	47.4	45	27.1	13.0	NE	13.00	25.0	ENE	40.9	46.1	39.6	29.828	0.00	0.00	0.733	0.000	79.4	28	43.4	77.3	1405	1	100.0	60
02/16/19	9:00 a	47.1	47.4	47.1	46	27.4	13.0	NE	13.00	23.0	ENE	40.6	45.8	39.3	29.844	0.00	0.00	0.746	0.000	79.5	27	42.6	77.3	1405	1	100.0	60
02/16/19	10:00 a	42.4	47.1	42.4	70	33.3	13.0	NE	13.00	29.0	ENE	35.2	41.8	34.6	29.891	0.02	0.06	0.942	0.000	79.7	27	42.8	77.5	1404	1	100.0	60
02/16/19	11:00 a	40.0	42.4	40.0	85	35.9	12.0	NE	12.00	22.0	E	32.8	39.8	32.6	29.886	0.05	0.08	1.042	0.000	79.5	27	42.6	77.3	1406	1	100.0	60
02/16/19	12:00 p	37.8	39.9	37.8	91	35.4	12.0	NE	12.00	21.0	NE	30.1	37.7	30.0	29.866	0.06	0.09	1.133	0.000	79.5	26	41.6	77.2	1404	1	100.0	60
02/16/19	1:00 p	37.2	38.1	37.2	90	34.5	11.0	NE	11.00	22.0	E	29.7	37.1	29.6	29.842	0.12	0.22	1.158	0.000	79.0	27	42.2	76.9	1405	1	100.0	60
02/16/19	2:00 p	37.0	37.3	37.0	93	35.2	11.0	NE	11.00	21.0	ENE	29.5	37.0	29.5	29.839	0.12	0.22	1.167	0.000	78.4	27	41.6	76.5	1405	1	100.0	60
02/16/19	3:00 p	37.2	37.3	36.9	95	35.9	7.0	NNW	7.00	18.0	NNW	31.8	37.2	31.8	29.864	0.07	0.14	1.158	0.000	78.3	27	41.6	76.5	1405	1	100.0	60
02/16/19	4:00 p	37.4	37.4	37.1	94	35.8	7.0	N	7.00	20.0	NNW	32.0	37.4	32.0	29.868	0.00	0.00	1.150	0.000	78.8	27	42.0	76.8	1405	1	100.0	60
02/16/19	5:00 p	37.6	37.7	37.4	91	35.2	11.0	NE	11.00	18.0	NNW	30.2	37.5	30.1	29.875	0.00	0.00	1.142	0.000	79.0	26	41.2	76.8	1405	1	100.0	60
02/16/19	6:00 p	38.0	38.0	37.5	89	35.0	10.0	NE	10.00	18.0	ENE	31.2	37.9	31.1	29.900	0.00	0.00	1.125	0.000	78.9	27	42.1	76.8	1403	1	100.0	60
02/16/19	7:00 p	38.4	38.4	38.1	85	34.3	7.0	NE	7.00	17.0	NE	33.2	38.2	33.0	29.920	0.00	0.00	1.108	0.000	78.8	26	41.0	76.7	1405	1	100.0	60
02/16/19	8:00 p	38.9	38.9	38.4	80	33.3	7.0	NNW	7.00	16.0	NNW	33.8	38.6	33.5	29.943	0.00	0.00	1.087	0.000	78.5	26	40.7	76.5	1405	1	100.0	60
02/16/19	9:00 p	39.0	39.2	38.9	83	34.3	7.0	NNW	7.00	17.0	NW	33.9	38.8	33.7	29.965	0.00	0.00	1.083	0.000	82.2	26	43.9	79.8	1404	1	100.0	60
02/16/19	10:00 p	39.0	39.1	38.8	83	34.3	6.0	NNW	6.00	15.0	NNW	34.6	38.8	34.4	29.988	0.00	0.00	1.083	0.000	83.3	25	43.8	80.7	1405	1	100.0	60
02/16/19	11:00 p	40.0	40.0	39.0	82	34.9	5.0	NNW	5.00	13.0	NNW	36.5	39.7	36.2	29.992	0.00	0.00	1.042	0.000	83.1	25	43.6	80.5	1405	1	100.0	60
SUNDAY			Temp	Hi	Low	Out	Dew	Wind	Wind	Wind	Hi	Hi	Wind	Heat	THW			Rain	Heat	Cool	In 	In	In 	In 	Wind	Wind	ISS 	Arc.
Date		Time	Out	Temp	Temp	Hum	Pt.	Speed	Dir	Run	Speed	Dir	Chill	Index	Index	Bar  	Rain	Rate	D-D 	D-D 	Temp	Hum	Dew	Heat	Samp	Tx 	Recept	Int.
02/17/19	1:00 a	38.9	39.8	38.9	84	34.5	6.0	NNW	6.00	13.0	NNW	34.4	38.7	34.2	30.002	0.00	0.00	1.087	0.000	81.0	26	42.9	78.5	1404	1	100.0	60
02/17/19	2:00 a	37.9	38.9	37.9	84	33.5	5.0	NE	5.00	13.0	NNE	34.0	37.7	33.8	29.995	0.00	0.00	1.129	0.000	79.0	27	42.2	76.9	1405	1	100.0	60
02/17/19	3:00 a	38.2	38.2	37.9	80	32.6	5.0	NE	5.00	14.0	NE	34.4	37.9	34.1	30.011	0.00	0.00	1.117	0.000	77.9	27	41.2	76.2	1405	1	100.0	60
02/17/19	4:00 a	38.4	38.6	38.2	78	32.1	6.0	NE	6.00	12.0	ENE	33.9	38.1	33.6	30.025	0.00	0.00	1.108	0.000	77.0	27	40.4	75.7	1405	1	100.0	60
02/17/19	5:00 a	38.5	38.6	38.3	73	30.6	7.0	NE	7.00	17.0	NE	33.3	38.0	32.8	30.036	0.00	0.00	1.104	0.000	76.8	27	40.3	75.5	1405	1	100.0	60
02/17/19	6:00 a	37.5	38.5	37.5	78	31.3	5.0	NE	5.00	15.0	NE	33.5	37.2	33.2	30.055	0.00	0.00	1.146	0.000	76.5	27	40.0	75.1	1405	1	100.0	60
02/17/19	7:00 a	36.0	37.5	36.0	85	31.9	4.0	NE	4.00	6.0	NE	32.7	35.8	32.5	30.077	0.00	0.00	1.208	0.000	77.7	27	41.0	76.1	1404	1	100.0	60
02/17/19	8:00 a	37.2	37.2	35.9	90	34.5	4.0	NNE	4.00	11.0	NE	34.1	37.1	34.0	30.083	0.00	0.00	1.158	0.000	79.0	26	41.2	76.8	1405	1	100.0	60
02/17/19	9:00 a	40.9	40.9	37.2	83	36.1	10.0	NE	10.00	19.0	ENE	34.7	40.7	34.5	30.063	0.00	0.00	1.004	0.000	81.9	25	42.6	79.4	1399	1	100.0	60
02/17/19	10:00 a	42.7	42.7	40.9	79	36.6	11.0	ENE	11.00	17.0	NE	36.3	42.4	36.0	30.068	0.00	0.00	0.929	0.000	82.3	25	43.0	79.8	1405	1	100.0	60
02/17/19	11:00 a	45.6	45.6	42.7	78	39.1	7.0	ENE	7.00	17.0	ENE	41.9	45.3	41.6	30.082	0.00	0.00	0.808	0.000	81.5	26	43.3	79.1	1405	1	100.0	60
02/17/19	12:00 p	47.6	47.6	45.6	72	39.0	5.0	NE	5.00	13.0	E	45.4	47.2	45.0	30.092	0.00	0.00	0.725	0.000	82.1	26	43.8	79.7	1405	1	100.0	60
02/17/19	1:00 p	46.7	47.8	46.7	76	39.5	5.0	NNW	5.00	14.0	NNW	44.3	46.4	44.0	30.107	0.00	0.00	0.762	0.000	81.3	26	43.1	78.9	1405	1	100.0	60
02/17/19	2:00 p	44.5	46.8	44.5	80	38.7	7.0	NE	7.00	16.0	ENE	40.6	44.3	40.4	30.096	0.00	0.00	0.854	0.000	80.8	26	42.7	78.3	1405	1	100.0	60
02/17/19	3:00 p	43.9	44.5	43.9	87	40.3	6.0	ENE	6.00	14.0	ENE	40.4	43.9	40.4	30.036	0.00	0.00	0.879	0.000	80.6	26	42.5	78.2	1405	1	100.0	60
02/17/19	4:00 p	44.5	44.6	43.8	90	41.7	6.0	SE	6.00	15.0	S	41.1	44.6	41.2	30.024	0.04	0.23	0.854	0.000	80.8	28	44.6	78.6	1405	1	100.0	60
02/17/19	5:00 p	43.2	44.6	43.1	94	41.6	10.0	SSE	10.00	16.0	S	37.3	43.3	37.4	29.978	0.02	0.16	0.908	0.000	80.4	27	43.3	78.1	1404	1	100.0	60
02/17/19	6:00 p	42.5	43.2	42.5	95	41.2	10.0	SSE	10.00	16.0	SSE	36.6	42.6	36.7	29.969	0.00	0.00	0.938	0.000	79.8	27	42.8	77.5	1405	1	100.0	60
02/17/19	7:00 p	42.8	42.8	42.5	96	41.7	6.0	SSE	6.00	15.0	SSE	39.1	42.9	39.2	29.948	0.00	0.00	0.925	0.000	79.3	28	43.4	77.2	1405	1	100.0	60
02/17/19	8:00 p	42.8	42.9	42.8	97	42.0	4.0	NW	4.00	11.0	S	40.6	43.0	40.8	29.956	0.08	0.19	0.925	0.000	79.1	28	43.2	77.1	1405	1	100.0	60
02/17/19	9:00 p	42.9	42.9	42.8	98	42.4	4.0	NW	4.00	6.0	WNW	40.7	43.1	40.9	29.955	0.05	0.91	0.921	0.000	80.9	28	44.7	78.7	1405	1	100.0	60
02/17/19	10:00 p	42.9	43.0	42.8	98	42.4	5.0	NW	5.00	10.0	NW	39.9	43.1	40.1	29.952	0.15	0.71	0.921	0.000	82.0	27	44.7	79.7	1405	1	100.0	60
02/17/19	11:00 p	43.2	43.2	42.8	98	42.7	0.0	NNW	0.00	6.0	NW	43.2	43.4	43.4	29.911	0.06	0.64	0.908	0.000	81.6	27	44.4	79.3	1405	1	100.0	60
02/18/19	12:00 a	43.5	43.5	43.2	98	43.0	0.0	NNW	0.00	6.0	NW	43.5	43.8	43.8	29.896	0.00	0.00	0.896	0.000	81.5	28	45.2	79.3	1405	1	100.0	60
MONDAY			Temp	Hi	Low	Out	Dew	Wind	Wind	Wind	Hi	Hi	Wind	Heat	THW			Rain	Heat	Cool	In 	In	In 	In 	Wind	Wind	ISS 	Arc.
Date		Time	Out	Temp	Temp	Hum	Pt.	Speed	Dir	Run	Speed	Dir	Chill	Index	Index	Bar  	Rain	Rate	D-D 	D-D 	Temp	Hum	Dew	Heat	Samp	Tx 	Recept	Int.
02/18/19	1:00 a	43.6	43.7	43.5	99	43.3	4.0	NW	4.00	7.0	NNW	41.5	43.9	41.8	29.888	0.01	0.00	0.892	0.000	82.1	28	45.8	79.9	1404	1	100.0	60
02/18/19	2:00 a	43.2	43.7	43.2	99	42.9	6.0	NW	6.00	14.0	NW	39.5	43.5	39.8	29.872	0.06	0.14	0.908	0.000	82.2	27	44.9	79.9	1405	1	100.0	60
02/18/19	3:00 a	42.8	43.2	42.8	99	42.5	5.0	NNW	5.00	14.0	NW	39.8	43.0	40.0	29.839	0.30	0.62	0.925	0.000	81.7	27	44.5	79.4	1404	1	100.0	60
02/18/19	4:00 a	43.2	43.2	42.8	99	42.9	4.0	NNW	4.00	13.0	W	41.0	43.5	41.3	29.835	0.26	1.24	0.908	0.000	82.3	27	45.0	80.0	1405	1	100.0	60
02/18/19	5:00 a	43.7	43.8	43.2	99	43.4	5.0	SSW	5.00	13.0	SW	40.8	44.0	41.1	29.829	0.01	0.06	0.887	0.000	82.1	28	45.8	79.9	1405	1	100.0	60
02/18/19	6:00 a	44.1	44.1	43.7	99	43.8	6.0	SSW	6.00	14.0	SW	40.6	44.5	41.0	29.846	0.00	0.00	0.871	0.000	81.6	28	45.3	79.4	1405	1	100.0	60
02/18/19	7:00 a	44.6	44.6	44.1	99	44.3	6.0	SSW	6.00	15.0	SW	41.2	45.0	41.6	29.842	0.00	0.00	0.850	0.000	79.9	28	43.9	77.7	1405	1	100.0	60
02/18/19	8:00 a	45.5	45.5	44.6	100	45.5	6.0	SW	6.00	16.0	SW	42.3	45.9	42.7	29.882	0.00	0.00	0.813	0.000	79.6	29	44.5	77.6	1405	1	100.0	60
02/18/19	9:00 a	46.9	46.9	45.5	100	46.9	6.0	SW	6.00	13.0	SSW	44.0	47.4	44.5	29.901	0.01	0.00	0.754	0.000	81.7	28	45.4	79.5	1405	1	100.0	60
02/18/19	10:00 a	47.4	47.4	46.9	100	47.4	7.0	W	7.00	18.0	W	44.1	47.9	44.6	29.935	0.00	0.00	0.733	0.000	81.9	28	45.6	79.8	1405	1	100.0	60
02/18/19	11:00 a	50.0	50.0	47.4	99	49.7	10.0	W	10.00	20.0	WSW	45.3	50.7	46.0	29.959	0.00	0.00	0.625	0.000	81.7	29	46.3	79.6	1405	1	100.0	60
02/18/19	12:00 p	52.8	52.8	50.0	91	50.2	11.0	WNW	11.00	19.0	W	48.0	53.0	48.2	29.958	0.00	0.00	0.508	0.000	82.4	29	46.9	80.3	1405	1	100.0	60
02/18/19	1:00 p	57.6	57.6	52.8	70	47.9	11.0	W	11.00	22.0	NW	53.6	56.8	52.8	29.952	0.00	0.00	0.308	0.000	82.7	29	47.2	80.6	1405	1	100.0	60
02/18/19	2:00 p	60.8	60.8	57.6	58	45.9	13.0	WNW	13.00	25.0	WNW	56.2	59.4	54.8	29.967	0.00	0.00	0.175	0.000	83.2	29	47.6	81.1	1405	1	100.0	60
02/18/19	3:00 p	60.2	60.9	60.2	58	45.4	11.0	NW	11.00	23.0	NW	56.5	58.8	55.1	29.995	0.00	0.00	0.200	0.000	84.5	28	47.8	82.4	1405	1	100.0	60
02/18/19	4:00 p	59.9	60.5	59.9	52	42.2	11.0	NNW	11.00	22.0	NNW	56.2	58.1	54.4	30.023	0.00	0.00	0.212	0.000	84.7	28	48.0	82.6	1404	1	100.0	60
02/18/19	5:00 p	58.2	59.9	58.2	54	41.6	10.0	NW	10.00	19.0	N	54.8	56.5	53.1	30.062	0.00	0.00	0.283	0.000	84.4	28	47.7	82.3	1405	1	100.0	60
02/18/19	6:00 p	54.0	58.2	54.0	67	43.3	6.0	NNW	6.00	16.0	NW	52.4	53.1	51.5	30.122	0.00	0.00	0.458	0.000	84.3	28	47.6	82.3	1405	1	100.0	60
02/18/19	7:00 p	51.1	53.9	51.1	70	41.7	5.0	NE	5.00	14.0	NE	49.5	50.6	49.0	30.186	0.00	0.00	0.579	0.000	83.2	29	47.6	81.1	1405	1	100.0	60
02/18/19	8:00 p	47.4	51.0	47.4	69	37.7	10.0	NE	10.00	18.0	ENE	42.3	46.9	41.8	30.234	0.00	0.00	0.733	0.000	83.7	28	47.1	81.6	1405	1	100.0	60
02/18/19	9:00 p	46.7	47.4	46.7	66	35.9	7.0	NE	7.00	17.0	NNE	43.2	46.0	42.5	30.273	0.00	0.00	0.762	0.000	83.8	28	47.2	81.7	1405	1	100.0	60
02/18/19	10:00 p	45.9	46.7	45.9	62	33.6	10.0	NNW	10.00	21.0	ENE	40.5	45.1	39.7	30.304	0.00	0.00	0.796	0.000	83.6	28	47.0	81.5	1405	1	100.0	60
02/18/19	11:00 p	45.0	45.9	45.0	56	30.2	10.0	NNW	10.00	27.0	N	39.5	44.0	38.5	30.336	0.00	0.00	0.833	0.000	83.2	28	46.7	81.0	1405	1	100.0	60
02/19/19	12:00 a	44.0	45.0	44.0	58	30.2	7.0	NNW	7.00	19.0	N	40.0	43.1	39.1	30.376	0.00	0.00	0.875	0.000	82.1	28	45.8	79.9	1405	1	100.0	60
TUESDAY			Temp	Hi	Low	Out	Dew	Wind	Wind	Wind	Hi	Hi	Wind	Heat	THW			Rain	Heat	Cool	In 	In	In 	In 	Wind	Wind	ISS 	Arc.
Date		Time	Out	Temp	Temp	Hum	Pt.	Speed	Dir	Run	Speed	Dir	Chill	Index	Index	Bar  	Rain	Rate	D-D 	D-D 	Temp	Hum	Dew	Heat	Samp	Tx 	Recept	Int.
02/19/19	1:00 a	43.1	44.0	43.1	61	30.6	7.0	NNW	7.00	18.0	NNW	38.9	42.3	38.1	30.399	0.00	0.00	0.913	0.000	80.3	28	44.2	78.1	1403	1	100.0	60
02/19/19	2:00 a	41.7	43.1	41.7	64	30.4	10.0	N	10.00	20.0	ENE	35.6	41.0	34.9	30.421	0.00	0.00	0.971	0.000	80.0	28	44.0	77.8	1405	1	100.0	60
02/19/19	3:00 a	40.4	41.7	40.4	65	29.6	10.0	N	10.00	19.0	ENE	34.1	39.7	33.4	30.440	0.00	0.00	1.025	0.000	79.5	27	42.6	77.3	1405	1	100.0	60
02/19/19	4:00 a	39.6	40.4	39.6	65	28.8	7.0	NE	7.00	18.0	NE	34.7	38.9	34.0	30.455	0.00	0.00	1.058	0.000	79.1	27	42.2	77.0	1405	1	100.0	60
02/19/19	5:00 a	39.1	39.6	39.1	64	27.9	10.0	NE	10.00	18.0	NE	32.5	38.4	31.8	30.483	0.00	0.00	1.079	0.000	79.2	27	42.3	77.1	1405	1	100.0	60
02/19/19	6:00 a	38.2	39.1	38.2	65	27.5	10.0	NE	10.00	20.0	NNW	31.4	37.5	30.7	30.501	0.00	0.00	1.117	0.000	78.9	26	41.1	76.7	1405	1	100.0	60
02/19/19	7:00 a	36.9	38.2	36.9	65	26.2	11.0	NNW	11.00	21.0	NW	29.4	36.2	28.7	30.531	0.00	0.00	1.171	0.000	79.5	26	41.6	77.2	1405	1	100.0	60
02/19/19	8:00 a	36.9	36.9	36.7	63	25.5	11.0	N	11.00	22.0	NNE	29.4	36.2	28.7	30.557	0.00	0.00	1.171	0.000	81.7	25	42.4	79.2	1405	1	100.0	60
02/19/19	9:00 a	38.0	38.0	36.9	62	26.1	12.0	NNW	12.00	28.0	NW	30.3	37.2	29.5	30.581	0.00	0.00	1.125	0.000	83.0	24	42.5	80.3	1405	1	100.0	60
02/19/19	10:00 a	39.0	39.0	38.0	61	26.7	12.0	NE	12.00	21.0	ENE	31.6	38.2	30.8	30.599	0.00	0.00	1.083	0.000	83.3	25	43.8	80.7	1405	1	100.0	60
02/19/19	11:00 a	39.4	39.4	38.9	58	25.8	12.0	NE	12.00	22.0	ENE	32.1	38.5	31.2	30.611	0.00	0.00	1.067	0.000	82.7	25	43.3	80.1	1405	1	100.0	60
02/19/19	12:00 p	39.3	40.0	39.3	62	27.4	12.0	NE	12.00	22.0	NE	32.0	38.5	31.2	30.601	0.00	0.00	1.071	0.000	83.2	25	43.7	80.6	1404	1	100.0	60
02/19/19	1:00 p	39.5	39.6	39.2	59	26.3	11.0	ENE	11.00	19.0	NE	32.6	38.7	31.8	30.583	0.00	0.00	1.063	0.000	83.3	25	43.8	80.7	1405	1	100.0	60
02/19/19	2:00 p	38.9	39.5	38.7	60	26.2	10.0	NE	10.00	19.0	E	32.3	38.1	31.5	30.558	0.00	0.00	1.087	0.000	82.6	25	43.2	80.0	1405	1	100.0	60
02/19/19	3:00 p	40.5	40.5	38.9	52	24.2	10.0	NE	10.00	19.0	NE	34.2	39.4	33.1	30.548	0.00	0.00	1.021	0.000	83.1	24	42.6	80.4	1405	1	100.0	60
02/19/19	4:00 p	39.5	40.8	39.5	55	24.7	11.0	NE	11.00	18.0	NE	32.6	38.5	31.6	30.555	0.00	0.00	1.063	0.000	82.2	24	41.8	79.6	1405	1	100.0	60
02/19/19	5:00 p	38.9	39.5	38.9	47	20.4	10.0	NE	10.00	16.0	NE	32.3	37.8	31.2	30.585	0.00	0.00	1.087	0.000	81.8	24	41.5	79.2	1405	1	100.0	60
02/19/19	6:00 p	38.9	39.0	38.9	46	19.9	7.0	ENE	7.00	17.0	E	33.8	37.7	32.6	30.565	0.00	0.00	1.087	0.000	83.0	24	42.5	80.3	1405	1	100.0	60
02/19/19	7:00 p	39.1	39.1	38.9	45	19.5	7.0	ENE	7.00	18.0	ENE	34.1	37.9	32.9	30.600	0.00	0.00	1.079	0.000	82.1	24	41.7	79.5	1405	1	100.0	60
02/19/19	8:00 p	38.8	39.1	38.8	55	24.0	7.0	ENE	7.00	15.0	NE	33.7	37.9	32.8	30.605	0.00	0.00	1.092	0.000	82.5	24	42.1	79.9	1405	1	100.0	60
02/19/19	9:00 p	38.9	38.9	38.8	54	23.7	6.0	ENE	6.00	15.0	E	34.4	38.0	33.5	30.625	0.00	0.00	1.087	0.000	81.9	24	41.6	79.3	1405	1	100.0	60
02/19/19	10:00 p	38.9	39.0	38.9	56	24.5	5.0	ENE	5.00	10.0	ENE	35.2	38.0	34.3	30.572	0.00	0.00	1.087	0.000	82.1	24	41.7	79.5	1405	1	100.0	60
02/19/19	11:00 p	38.9	39.0	38.9	54	23.7	4.0	ENE	4.00	10.0	ENE	36.0	38.0	35.1	30.591	0.00	0.00	1.087	0.000	81.9	24	41.6	79.3	1404	1	100.0	60
WEDNESDAY		Temp	Hi	Low	Out	Dew	Wind	Wind	Wind	Hi	Hi	Wind	Heat	THW			Rain	Heat	Cool	In 	In	In 	In 	Wind	Wind	ISS 	Arc.
Date		Time	Out	Temp	Temp	Hum	Pt.	Speed	Dir	Run	Speed	Dir	Chill	Index	Index	Bar  	Rain	Rate	D-D 	D-D 	Temp	Hum	Dew	Heat	Samp	Tx 	Recept	Int.
02/20/19	1:00 a	39.2	39.2	39.1	57	25.2	0.0	NNE	0.00	6.0	ENE	39.2	38.3	38.3	30.539	0.00	0.00	1.075	0.000	79.6	24	39.6	77.1	1403	1	100.0	60
02/20/19	2:00 a	38.2	39.2	38.2	72	30.0	4.0	ENE	4.00	10.0	ENE	35.2	37.7	34.7	30.554	0.00	0.00	1.117	0.000	79.1	24	39.2	76.7	1405	1	100.0	60
02/20/19	3:00 a	38.3	38.3	38.2	68	28.7	4.0	SSE	4.00	6.0	SSE	35.4	37.7	34.8	30.524	0.00	0.00	1.113	0.000	78.7	24	38.9	76.4	1405	1	100.0	60
02/20/19	4:00 a	37.9	38.4	37.9	70	29.0	6.0	ENE	6.00	14.0	NNE	33.3	37.3	32.7	30.494	0.00	0.00	1.129	0.000	78.4	24	38.6	76.3	1405	1	100.0	60
02/20/19	5:00 a	38.8	38.8	37.9	68	29.1	6.0	ENE	6.00	15.0	NE	34.3	38.2	33.7	30.513	0.00	0.00	1.092	0.000	78.8	24	38.9	76.5	1405	1	100.0	60
02/20/19	6:00 a	39.2	39.2	38.8	68	29.5	5.0	ENE	5.00	16.0	ENE	35.5	38.6	34.9	30.477	0.00	0.00	1.075	0.000	78.9	24	39.0	76.5	1405	1	100.0	60
02/20/19	7:00 a	39.4	39.4	39.2	72	31.1	7.0	E	7.00	20.0	E	34.4	38.9	33.9	30.471	0.00	0.00	1.067	0.000	78.6	24	38.8	76.4	1405	1	100.0	60
02/20/19	8:00 a	38.8	39.7	38.8	86	35.0	11.0	ENE	11.00	22.0	ENE	31.7	38.6	31.5	30.474	0.01	0.00	1.092	0.000	81.4	24	41.1	78.7	1404	1	100.0	60
02/20/19	9:00 a	37.4	38.8	37.4	92	35.3	12.0	ENE	12.00	21.0	NE	29.6	37.3	29.5	30.439	0.00	0.00	1.150	0.000	81.7	23	40.3	78.9	1406	1	100.0	60
02/20/19	10:00 a	38.4	38.4	37.4	94	36.8	11.0	ENE	11.00	21.0	ENE	31.2	38.4	31.2	30.423	0.00	0.00	1.108	0.000	81.2	24	41.0	78.5	1404	1	100.0	60
02/20/19	11:00 a	40.1	40.1	38.4	95	38.8	10.0	E	10.00	20.0	ENE	33.7	40.2	33.8	30.405	0.00	0.00	1.038	0.000	80.4	24	40.3	77.8	1405	1	100.0	60
02/20/19	12:00 p	41.3	41.3	40.0	96	40.2	6.0	E	6.00	18.0	ENE	37.3	41.4	37.4	30.367	0.00	0.00	0.988	0.000	79.9	25	40.9	77.4	1405	1	100.0	60
02/20/19	1:00 p	42.2	42.2	41.3	97	41.4	7.0	E	7.00	19.0	NE	37.8	42.3	37.9	30.339	0.01	0.00	0.950	0.000	79.9	25	40.9	77.4	1405	1	100.0	60
02/20/19	2:00 p	43.2	43.2	42.2	97	42.4	10.0	E	10.00	18.0	ENE	37.3	43.4	37.5	30.287	0.00	0.00	0.908	0.000	80.3	25	41.3	77.8	1405	1	100.0	60
02/20/19	3:00 p	44.0	44.0	43.2	98	43.5	10.0	ENE	10.00	20.0	ENE	38.3	44.3	38.6	30.264	0.06	0.12	0.875	0.000	80.3	25	41.3	77.8	1405	1	100.0	60
02/20/19	4:00 p	45.1	45.1	44.0	98	44.6	6.0	ENE	6.00	15.0	NE	41.8	45.4	42.1	30.217	0.03	0.08	0.829	0.000	80.2	25	41.2	77.7	1405	1	100.0	60
02/20/19	5:00 p	46.3	46.3	45.1	99	46.0	5.0	ENE	5.00	14.0	ENE	43.9	46.7	44.3	30.187	0.02	0.06	0.779	0.000	80.1	26	42.1	77.7	1405	1	100.0	60
02/20/19	6:00 p	47.2	47.2	46.2	99	46.9	4.0	ENE	4.00	7.0	ENE	45.6	47.7	46.1	30.151	0.01	0.00	0.742	0.000	80.0	26	42.0	77.6	1405	1	100.0	60
02/20/19	7:00 p	47.9	47.9	47.2	99	47.6	4.0	SSE	4.00	11.0	S	46.5	48.5	47.1	30.119	0.01	0.00	0.712	0.000	81.4	26	43.2	79.0	1404	1	100.0	60
02/20/19	8:00 p	50.3	50.3	47.9	100	50.3	5.0	SSE	5.00	11.0	S	48.6	51.0	49.3	30.108	0.00	0.00	0.613	0.000	81.7	26	43.5	79.3	1406	1	100.0	60
02/20/19	9:00 p	47.6	50.3	47.6	99	47.3	5.0	WNW	5.00	14.0	WNW	45.4	48.1	45.9	30.122	0.02	0.06	0.725	0.000	81.5	27	44.3	79.2	1404	1	100.0	60
02/20/19	10:00 p	45.3	47.6	45.3	99	45.0	6.0	NW	6.00	16.0	WNW	42.1	45.7	42.5	30.088	0.00	0.00	0.821	0.000	81.7	27	44.5	79.4	1405	1	100.0	60
02/20/19	11:00 p	45.5	45.5	45.2	99	45.2	7.0	SSE	7.00	24.0	SSE	41.8	45.9	42.2	30.014	0.01	0.00	0.813	0.000	82.1	27	44.8	79.8	1405	1	100.0	60
02/21/19	12:00 a	45.5	45.8	45.4	99	45.2	5.0	WNW	5.00	14.0	WNW	42.9	45.9	43.3	30.021	0.00	0.00	0.813	0.000	81.7	27	44.5	79.4	1405	1	100.0	60
WEDNESDAY		Temp	Hi	Low	Out	Dew	Wind	Wind	Wind	Hi	Hi	Wind	Heat	THW			Rain	Heat	Cool	In 	In	In 	In 	Wind	Wind	ISS 	Arc.
Date		Time	Out	Temp	Temp	Hum	Pt.	Speed	Dir	Run	Speed	Dir	Chill	Index	Index	Bar  	Rain	Rate	D-D 	D-D 	Temp	Hum	Dew	Heat	Samp	Tx 	Recept	Int.
02/21/19	1:00 a	42.7	45.5	42.7	99	42.4	7.0	W	7.00	17.0	WNW	38.4	42.9	38.6	30.047	0.00	0.00	0.929	0.000	80.0	28	44.0	77.8	1404	1	100.0	60
02/21/19	2:00 a	41.3	42.7	41.3	99	41.0	6.0	W	6.00	15.0	W	37.3	41.5	37.5	30.044	0.00	0.00	0.988	0.000	79.0	28	43.1	77.0	1405	1	100.0	60
02/21/19	3:00 a	41.1	41.3	41.0	99	40.8	5.0	SW	5.00	13.0	SW	37.7	41.3	37.9	30.011	0.00	0.00	0.996	0.000	78.6	28	42.8	76.7	1405	1	100.0	60
02/21/19	4:00 a	40.9	41.2	40.8	99	40.6	6.0	SW	6.00	14.0	WSW	36.8	41.1	37.0	30.017	0.00	0.00	1.004	0.000	78.3	28	42.5	76.5	1405	1	100.0	60
02/21/19	5:00 a	41.8	41.8	40.9	100	41.8	6.0	SW	6.00	22.0	SW	37.9	42.0	38.1	30.016	0.04	0.13	0.967	0.000	78.1	28	42.3	76.4	1404	1	100.0	60
02/21/19	6:00 a	43.6	43.6	41.8	100	43.6	6.0	SW	6.00	15.0	SW	40.0	44.0	40.4	29.978	0.05	0.20	0.892	0.000	78.0	29	43.2	76.4	1405	1	100.0	60
02/21/19	7:00 a	44.6	44.6	43.6	100	44.6	5.0	W	5.00	14.0	SW	41.9	45.0	42.3	30.044	0.01	0.00	0.850	0.000	78.4	29	43.5	76.7	1405	1	100.0	60
02/21/19	8:00 a	44.2	44.6	44.2	100	44.2	6.0	W	6.00	16.0	WSW	40.7	44.6	41.1	30.040	0.00	0.00	0.867	0.000	81.5	28	45.2	79.3	1405	1	100.0	60
02/21/19	9:00 a	44.7	44.7	44.2	100	44.7	5.0	SW	5.00	14.0	SW	42.0	45.1	42.4	30.063	0.00	0.00	0.846	0.000	82.6	28	46.2	80.4	1405	1	100.0	60
02/21/19	10:00 a	46.1	46.1	44.7	100	46.1	5.0	SW	5.00	15.0	SW	43.6	46.5	44.0	30.067	0.01	0.00	0.788	0.000	82.4	28	46.0	80.2	1405	1	100.0	60
02/21/19	11:00 a	48.8	48.9	46.1	100	48.8	6.0	SW	6.00	16.0	WSW	46.3	49.4	46.9	30.080	0.00	0.00	0.675	0.000	80.8	29	45.6	78.7	1405	1	100.0	60
02/21/19	12:00 p	49.8	49.8	48.9	100	49.8	6.0	SW	6.00	16.0	SW	47.5	50.5	48.2	30.056	0.09	0.20	0.633	0.000	79.9	29	44.8	77.8	1405	1	100.0	60
02/21/19	1:00 p	51.0	51.0	49.8	100	51.0	6.0	SW	6.00	14.0	WSW	48.9	51.6	49.5	30.039	0.03	0.22	0.583	0.000	81.0	30	46.6	79.0	1405	1	100.0	60
02/21/19	2:00 p	52.4	52.4	51.0	100	52.4	5.0	W	5.00	14.0	WNW	51.0	52.9	51.5	30.025	0.00	0.00	0.525	0.000	81.8	29	46.4	79.8	1405	1	100.0	60
02/21/19	3:00 p	54.1	54.2	52.3	100	54.1	6.0	WSW	6.00	14.0	W	52.5	54.5	52.9	30.027	0.00	0.00	0.454	0.000	82.7	29	47.2	80.6	1405	1	100.0	60
02/21/19	4:00 p	55.1	55.1	54.0	100	55.1	5.0	W	5.00	12.0	W	54.2	55.5	54.6	30.022	0.00	0.00	0.413	0.000	83.2	29	47.6	81.1	1405	1	100.0	60
02/21/19	5:00 p	54.5	55.4	54.5	98	53.9	5.0	NNW	5.00	11.0	NE	53.5	54.8	53.8	30.054	0.00	0.00	0.438	0.000	83.7	29	48.1	81.8	1405	1	100.0	60
02/21/19	6:00 p	52.9	54.5	52.9	98	52.4	4.0	NNE	4.00	7.0	N	52.2	53.3	52.6	30.078	0.00	0.00	0.504	0.000	83.6	29	48.0	81.6	1404	1	100.0	60
02/21/19	7:00 p	51.2	52.9	51.2	98	50.7	0.0	NNE	0.00	6.0	NNE	51.2	51.7	51.7	30.115	0.00	0.00	0.575	0.000	82.3	30	47.8	80.4	1406	1	100.0	60
02/21/19	8:00 p	49.0	51.2	49.0	98	48.5	0.0	NNE	0.00	7.0	NE	49.0	49.6	49.6	30.130	0.00	0.00	0.667	0.000	82.8	30	48.2	80.8	1404	1	100.0	60
02/21/19	9:00 p	47.9	49.0	47.9	99	47.6	4.0	NE	4.00	6.0	NE	46.5	48.5	47.1	30.153	0.00	0.00	0.712	0.000	82.4	31	48.7	80.6	1405	1	100.0	60
02/21/19	10:00 p	46.1	47.9	46.1	99	45.8	4.0	NE	4.00	6.0	NE	44.3	46.5	44.7	30.161	0.00	0.00	0.788	0.000	82.2	30	47.7	80.3	1405	1	100.0	60
02/21/19	11:00 p	44.8	46.1	44.8	99	44.5	0.0	NE	0.00	5.0	NE	44.8	45.2	45.2	30.173	0.00	0.00	0.842	0.000	82.1	30	47.6	80.2	1405	1	100.0	60
02/22/19	12:00 a	45.7	45.7	44.8	100	45.7	0.0	NE	0.00	5.0	NE	45.7	46.1	46.1	30.186	0.00	0.00	0.804	0.000	81.5	30	47.1	79.5	1405	1	100.0	60
THURSDAY		Temp	Hi	Low	Out	Dew	Wind	Wind	Wind	Hi	Hi	Wind	Heat	THW			Rain	Heat	Cool	In 	In	In 	In 	Wind	Wind	ISS 	Arc.
Date		Time	Out	Temp	Temp	Hum	Pt.	Speed	Dir	Run	Speed	Dir	Chill	Index	Index	Bar  	Rain	Rate	D-D 	D-D 	Temp	Hum	Dew	Heat	Samp	Tx 	Recept	Int.
02/22/19	1:00 a	46.4	46.4	45.7	100	46.4	0.0	NE	0.00	5.0	NE	46.4	46.8	46.8	30.204	0.00	0.00	0.775	0.000	80.2	30	45.9	78.2	1404	1	100.0	60
02/22/19	2:00 a	46.7	46.7	46.4	100	46.7	4.0	NNE	4.00	5.0	NNE	45.0	47.2	45.5	30.187	0.00	0.00	0.762	0.000	79.4	30	45.3	77.5	1405	1	100.0	60
02/22/19	3:00 a	47.0	47.0	46.7	100	47.0	4.0	NNE	4.00	6.0	N	45.4	47.5	45.9	30.208	0.00	0.00	0.750	0.000	79.2	30	45.1	77.4	1404	1	100.0	60
02/22/19	4:00 a	47.0	47.0	46.9	100	47.0	5.0	NE	5.00	10.0	NNW	44.7	47.5	45.2	30.242	0.00	0.00	0.750	0.000	79.2	30	45.1	77.4	1405	1	100.0	60
02/22/19	5:00 a	46.3	47.0	46.3	99	46.0	4.0	NE	4.00	7.0	WNW	44.6	46.7	45.0	30.241	0.04	0.07	0.779	0.000	79.3	30	45.2	77.4	1405	1	100.0	60
02/22/19	6:00 a	45.8	46.3	45.8	98	45.3	6.0	NE	6.00	14.0	NE	42.7	46.2	43.1	30.249	0.04	0.10	0.800	0.000	79.3	30	45.2	77.4	1405	1	100.0	60
02/22/19	7:00 a	43.6	45.8	43.6	94	42.0	10.0	NE	10.00	22.0	E	37.8	43.7	37.9	30.294	0.11	0.24	0.892	0.000	79.5	30	45.3	77.6	1405	1	100.0	60
02/22/19	8:00 a	42.2	43.6	42.2	97	41.4	7.0	NE	7.00	18.0	NW	37.8	42.3	37.9	30.329	0.12	0.23	0.950	0.000	81.0	30	46.6	79.0	1405	1	100.0	60

			Temp	Hi	Low	Out	Dew	Wind	Wind	Wind	Hi	Hi	Wind	Heat	THW			Rain	Heat	Cool	In 	In	In 	In 	Wind	Wind	ISS 	Arc.
Date		Time	Out	Temp	Temp	Hum	Pt.	Speed	Dir	Run	Speed	Dir	Chill	Index	Index	Bar  	Rain	Rate	D-D 	D-D 	Temp	Hum	Dew	Heat	Samp	Tx 	Recept	Int.
-----------------------------------------------------------------------------------------------------------------------------------------------------------------------------------